<?xml version="1.0" encoding="UTF-8" standalone="no" ?>
<gpx xmlns="http://www.topografix.com/GPX/1/1" xmlns:xsi="http://www.w3.org/2001/XMLSchema-instance" xsi:schemaLocation="http://www.topografix.com/GPX/1/1 http://www.topografix.com/GPX/1/1/gpx.xsd" version="1.1" creator="VisuGPX - https://www.visugpx.com">
  <metadata>
    <name>Liancourt-Osny 42km</name>
    <desc><![CDATA[Pas mal, pas mal. Mais mais au sec c\'est mieux :)

]]></desc>
  </metadata>
  <trk>
    <name><![CDATA[08/03/2015 09:16:17]]></name>
    <trkseg>
      <trkpt lat="49.22101" lon="1.90526">
        <ele>95.599975585938</ele>
        <time>2015-03-08T08:16:17Z</time>
      </trkpt>
      <trkpt lat="49.22102" lon="1.90527">
        <ele>94.599975585938</ele>
        <time>2015-03-08T08:16:26Z</time>
      </trkpt>
      <trkpt lat="49.22102" lon="1.90528">
        <ele>93</ele>
        <time>2015-03-08T08:16:36Z</time>
      </trkpt>
      <trkpt lat="49.221" lon="1.90531">
        <ele>94</ele>
        <time>2015-03-08T08:16:59Z</time>
      </trkpt>
      <trkpt lat="49.22082" lon="1.90539">
        <ele>94.200012207031</ele>
        <time>2015-03-08T08:17:09Z</time>
      </trkpt>
      <trkpt lat="49.2207" lon="1.90526">
        <ele>94.200012207031</ele>
        <time>2015-03-08T08:17:17Z</time>
      </trkpt>
      <trkpt lat="49.22084" lon="1.90507">
        <ele>94</ele>
        <time>2015-03-08T08:17:27Z</time>
      </trkpt>
      <trkpt lat="49.22089" lon="1.90504">
        <ele>90</ele>
        <time>2015-03-08T08:17:31Z</time>
      </trkpt>
      <trkpt lat="49.22091" lon="1.90503">
        <ele>88.200012207031</ele>
        <time>2015-03-08T08:17:32Z</time>
      </trkpt>
      <trkpt lat="49.2209" lon="1.90504">
        <ele>92.599975585938</ele>
        <time>2015-03-08T08:17:33Z</time>
      </trkpt>
      <trkpt lat="49.22091" lon="1.90503">
        <ele>97</ele>
        <time>2015-03-08T08:17:37Z</time>
      </trkpt>
      <trkpt lat="49.22091" lon="1.90503">
        <ele>93.799987792969</ele>
        <time>2015-03-08T08:17:39Z</time>
      </trkpt>
      <trkpt lat="49.22091" lon="1.90503">
        <ele>90.400024414062</ele>
        <time>2015-03-08T08:17:41Z</time>
      </trkpt>
      <trkpt lat="49.22091" lon="1.90503">
        <ele>94</ele>
        <time>2015-03-08T08:17:43Z</time>
      </trkpt>
      <trkpt lat="49.22111" lon="1.90493">
        <ele>94.200012207031</ele>
        <time>2015-03-08T08:18:04Z</time>
      </trkpt>
      <trkpt lat="49.22167" lon="1.9047">
        <ele>95.400024414062</ele>
        <time>2015-03-08T08:18:15Z</time>
      </trkpt>
      <trkpt lat="49.22229" lon="1.90445">
        <ele>97.799987792969</ele>
        <time>2015-03-08T08:18:27Z</time>
      </trkpt>
      <trkpt lat="49.22257" lon="1.90463">
        <ele>99.400024414062</ele>
        <time>2015-03-08T08:18:34Z</time>
      </trkpt>
      <trkpt lat="49.2226" lon="1.90478">
        <ele>100</ele>
        <time>2015-03-08T08:18:36Z</time>
      </trkpt>
      <trkpt lat="49.22278" lon="1.90575">
        <ele>98</ele>
        <time>2015-03-08T08:18:47Z</time>
      </trkpt>
      <trkpt lat="49.22288" lon="1.90627">
        <ele>98.400024414062</ele>
        <time>2015-03-08T08:18:54Z</time>
      </trkpt>
      <trkpt lat="49.22316" lon="1.9065">
        <ele>99.200012207031</ele>
        <time>2015-03-08T08:19:02Z</time>
      </trkpt>
      <trkpt lat="49.22342" lon="1.90666">
        <ele>100.20001220703</ele>
        <time>2015-03-08T08:19:09Z</time>
      </trkpt>
      <trkpt lat="49.22384" lon="1.90686">
        <ele>100.79998779297</ele>
        <time>2015-03-08T08:19:20Z</time>
      </trkpt>
      <trkpt lat="49.22483" lon="1.90714">
        <ele>101</ele>
        <time>2015-03-08T08:19:42Z</time>
      </trkpt>
      <trkpt lat="49.22637" lon="1.90756">
        <ele>101.59997558594</ele>
        <time>2015-03-08T08:20:15Z</time>
      </trkpt>
      <trkpt lat="49.22706" lon="1.90782">
        <ele>101.40002441406</ele>
        <time>2015-03-08T08:20:31Z</time>
      </trkpt>
      <trkpt lat="49.22752" lon="1.90809">
        <ele>100.79998779297</ele>
        <time>2015-03-08T08:20:42Z</time>
      </trkpt>
      <trkpt lat="49.22892" lon="1.90895">
        <ele>99.799987792969</ele>
        <time>2015-03-08T08:21:15Z</time>
      </trkpt>
      <trkpt lat="49.22976" lon="1.90945">
        <ele>97</ele>
        <time>2015-03-08T08:21:32Z</time>
      </trkpt>
      <trkpt lat="49.22981" lon="1.90948">
        <ele>96.799987792969</ele>
        <time>2015-03-08T08:21:33Z</time>
      </trkpt>
      <trkpt lat="49.23047" lon="1.90985">
        <ele>94.599975585938</ele>
        <time>2015-03-08T08:21:46Z</time>
      </trkpt>
      <trkpt lat="49.23053" lon="1.90987">
        <ele>94.400024414062</ele>
        <time>2015-03-08T08:21:47Z</time>
      </trkpt>
      <trkpt lat="49.23107" lon="1.91006">
        <ele>91.200012207031</ele>
        <time>2015-03-08T08:21:56Z</time>
      </trkpt>
      <trkpt lat="49.23124" lon="1.91012">
        <ele>90</ele>
        <time>2015-03-08T08:21:59Z</time>
      </trkpt>
      <trkpt lat="49.23144" lon="1.91012">
        <ele>88.799987792969</ele>
        <time>2015-03-08T08:22:04Z</time>
      </trkpt>
      <trkpt lat="49.23145" lon="1.91033">
        <ele>87.799987792969</ele>
        <time>2015-03-08T08:22:10Z</time>
      </trkpt>
      <trkpt lat="49.23126" lon="1.91088">
        <ele>87.599975585938</ele>
        <time>2015-03-08T08:22:20Z</time>
      </trkpt>
      <trkpt lat="49.2313" lon="1.91111">
        <ele>85</ele>
        <time>2015-03-08T08:22:25Z</time>
      </trkpt>
      <trkpt lat="49.23131" lon="1.91118">
        <ele>84</ele>
        <time>2015-03-08T08:22:26Z</time>
      </trkpt>
      <trkpt lat="49.23136" lon="1.91142">
        <ele>80.799987792969</ele>
        <time>2015-03-08T08:22:29Z</time>
      </trkpt>
      <trkpt lat="49.23141" lon="1.91166">
        <ele>77.799987792969</ele>
        <time>2015-03-08T08:22:32Z</time>
      </trkpt>
      <trkpt lat="49.23145" lon="1.912">
        <ele>74.599975585938</ele>
        <time>2015-03-08T08:22:35Z</time>
      </trkpt>
      <trkpt lat="49.23153" lon="1.91253">
        <ele>70.400024414062</ele>
        <time>2015-03-08T08:22:39Z</time>
      </trkpt>
      <trkpt lat="49.23159" lon="1.91274">
        <ele>68.599975585938</ele>
        <time>2015-03-08T08:22:41Z</time>
      </trkpt>
      <trkpt lat="49.23162" lon="1.91315">
        <ele>65</ele>
        <time>2015-03-08T08:22:45Z</time>
      </trkpt>
      <trkpt lat="49.23167" lon="1.91371">
        <ele>62.799987792969</ele>
        <time>2015-03-08T08:22:50Z</time>
      </trkpt>
      <trkpt lat="49.23194" lon="1.9149">
        <ele>59.599975585938</ele>
        <time>2015-03-08T08:23:01Z</time>
      </trkpt>
      <trkpt lat="49.23204" lon="1.9153">
        <ele>58.400024414062</ele>
        <time>2015-03-08T08:23:05Z</time>
      </trkpt>
      <trkpt lat="49.23236" lon="1.91659">
        <ele>56.799987792969</ele>
        <time>2015-03-08T08:23:19Z</time>
      </trkpt>
      <trkpt lat="49.23239" lon="1.91676">
        <ele>56.200012207031</ele>
        <time>2015-03-08T08:23:21Z</time>
      </trkpt>
      <trkpt lat="49.2324" lon="1.91704">
        <ele>55.200012207031</ele>
        <time>2015-03-08T08:23:24Z</time>
      </trkpt>
      <trkpt lat="49.23236" lon="1.91747">
        <ele>52.400024414062</ele>
        <time>2015-03-08T08:23:28Z</time>
      </trkpt>
      <trkpt lat="49.23235" lon="1.91756">
        <ele>52.200012207031</ele>
        <time>2015-03-08T08:23:29Z</time>
      </trkpt>
      <trkpt lat="49.23236" lon="1.918">
        <ele>50.799987792969</ele>
        <time>2015-03-08T08:23:34Z</time>
      </trkpt>
      <trkpt lat="49.23238" lon="1.91824">
        <ele>51.200012207031</ele>
        <time>2015-03-08T08:23:37Z</time>
      </trkpt>
      <trkpt lat="49.2324" lon="1.91876">
        <ele>51.400024414062</ele>
        <time>2015-03-08T08:23:44Z</time>
      </trkpt>
      <trkpt lat="49.23244" lon="1.91938">
        <ele>53</ele>
        <time>2015-03-08T08:23:55Z</time>
      </trkpt>
      <trkpt lat="49.23251" lon="1.92008">
        <ele>56.599975585938</ele>
        <time>2015-03-08T08:24:10Z</time>
      </trkpt>
      <trkpt lat="49.23254" lon="1.92063">
        <ele>59.799987792969</ele>
        <time>2015-03-08T08:24:23Z</time>
      </trkpt>
      <trkpt lat="49.23254" lon="1.92105">
        <ele>63.599975585938</ele>
        <time>2015-03-08T08:24:34Z</time>
      </trkpt>
      <trkpt lat="49.23254" lon="1.92156">
        <ele>67.400024414062</ele>
        <time>2015-03-08T08:24:45Z</time>
      </trkpt>
      <trkpt lat="49.23259" lon="1.92194">
        <ele>69.599975585938</ele>
        <time>2015-03-08T08:24:54Z</time>
      </trkpt>
      <trkpt lat="49.23261" lon="1.92199">
        <ele>69.599975585938</ele>
        <time>2015-03-08T08:24:55Z</time>
      </trkpt>
      <trkpt lat="49.23264" lon="1.92237">
        <ele>70.599975585938</ele>
        <time>2015-03-08T08:25:04Z</time>
      </trkpt>
      <trkpt lat="49.23262" lon="1.92257">
        <ele>72.400024414062</ele>
        <time>2015-03-08T08:25:10Z</time>
      </trkpt>
      <trkpt lat="49.23263" lon="1.92276">
        <ele>73.799987792969</ele>
        <time>2015-03-08T08:25:16Z</time>
      </trkpt>
      <trkpt lat="49.23259" lon="1.92301">
        <ele>76</ele>
        <time>2015-03-08T08:25:24Z</time>
      </trkpt>
      <trkpt lat="49.23249" lon="1.92324">
        <ele>78</ele>
        <time>2015-03-08T08:25:32Z</time>
      </trkpt>
      <trkpt lat="49.23233" lon="1.92346">
        <ele>81.400024414062</ele>
        <time>2015-03-08T08:25:44Z</time>
      </trkpt>
      <trkpt lat="49.2323" lon="1.92346">
        <ele>81.599975585938</ele>
        <time>2015-03-08T08:25:45Z</time>
      </trkpt>
      <trkpt lat="49.23219" lon="1.92347">
        <ele>82.400024414062</ele>
        <time>2015-03-08T08:25:51Z</time>
      </trkpt>
      <trkpt lat="49.23216" lon="1.92364">
        <ele>82.599975585938</ele>
        <time>2015-03-08T08:25:58Z</time>
      </trkpt>
      <trkpt lat="49.23218" lon="1.92379">
        <ele>81.599975585938</ele>
        <time>2015-03-08T08:26:02Z</time>
      </trkpt>
      <trkpt lat="49.23221" lon="1.92407">
        <ele>79.599975585938</ele>
        <time>2015-03-08T08:26:10Z</time>
      </trkpt>
      <trkpt lat="49.23236" lon="1.92412">
        <ele>78.400024414062</ele>
        <time>2015-03-08T08:26:13Z</time>
      </trkpt>
      <trkpt lat="49.23258" lon="1.9239">
        <ele>75.799987792969</ele>
        <time>2015-03-08T08:26:18Z</time>
      </trkpt>
      <trkpt lat="49.2327" lon="1.92381">
        <ele>72.799987792969</ele>
        <time>2015-03-08T08:26:22Z</time>
      </trkpt>
      <trkpt lat="49.23264" lon="1.92407">
        <ele>71</ele>
        <time>2015-03-08T08:26:27Z</time>
      </trkpt>
      <trkpt lat="49.23257" lon="1.92431">
        <ele>69.799987792969</ele>
        <time>2015-03-08T08:26:30Z</time>
      </trkpt>
      <trkpt lat="49.23253" lon="1.92446">
        <ele>68.400024414062</ele>
        <time>2015-03-08T08:26:32Z</time>
      </trkpt>
      <trkpt lat="49.23252" lon="1.92478">
        <ele>66</ele>
        <time>2015-03-08T08:26:35Z</time>
      </trkpt>
      <trkpt lat="49.23254" lon="1.92506">
        <ele>63.599975585938</ele>
        <time>2015-03-08T08:26:37Z</time>
      </trkpt>
      <trkpt lat="49.23261" lon="1.92548">
        <ele>59.200012207031</ele>
        <time>2015-03-08T08:26:40Z</time>
      </trkpt>
      <trkpt lat="49.23248" lon="1.92602">
        <ele>55.200012207031</ele>
        <time>2015-03-08T08:26:44Z</time>
      </trkpt>
      <trkpt lat="49.23242" lon="1.92613">
        <ele>53.200012207031</ele>
        <time>2015-03-08T08:26:45Z</time>
      </trkpt>
      <trkpt lat="49.23228" lon="1.92643">
        <ele>50.400024414062</ele>
        <time>2015-03-08T08:26:48Z</time>
      </trkpt>
      <trkpt lat="49.23235" lon="1.92662">
        <ele>47.599975585938</ele>
        <time>2015-03-08T08:26:52Z</time>
      </trkpt>
      <trkpt lat="49.23238" lon="1.92663">
        <ele>47</ele>
        <time>2015-03-08T08:26:53Z</time>
      </trkpt>
      <trkpt lat="49.2325" lon="1.92667">
        <ele>46</ele>
        <time>2015-03-08T08:26:56Z</time>
      </trkpt>
      <trkpt lat="49.23259" lon="1.92673">
        <ele>45.200012207031</ele>
        <time>2015-03-08T08:26:58Z</time>
      </trkpt>
      <trkpt lat="49.23277" lon="1.92688">
        <ele>43.799987792969</ele>
        <time>2015-03-08T08:27:02Z</time>
      </trkpt>
      <trkpt lat="49.23299" lon="1.92722">
        <ele>42</ele>
        <time>2015-03-08T08:27:07Z</time>
      </trkpt>
      <trkpt lat="49.23323" lon="1.92768">
        <ele>40</ele>
        <time>2015-03-08T08:27:13Z</time>
      </trkpt>
      <trkpt lat="49.2336" lon="1.92818">
        <ele>38.400024414062</ele>
        <time>2015-03-08T08:27:20Z</time>
      </trkpt>
      <trkpt lat="49.23365" lon="1.92826">
        <ele>38.200012207031</ele>
        <time>2015-03-08T08:27:21Z</time>
      </trkpt>
      <trkpt lat="49.23421" lon="1.92909">
        <ele>36</ele>
        <time>2015-03-08T08:27:32Z</time>
      </trkpt>
      <trkpt lat="49.23489" lon="1.92998">
        <ele>35.400024414062</ele>
        <time>2015-03-08T08:27:46Z</time>
      </trkpt>
      <trkpt lat="49.23525" lon="1.93056">
        <ele>35.799987792969</ele>
        <time>2015-03-08T08:27:57Z</time>
      </trkpt>
      <trkpt lat="49.23515" lon="1.93075">
        <ele>35.400024414062</ele>
        <time>2015-03-08T08:28:01Z</time>
      </trkpt>
      <trkpt lat="49.23461" lon="1.93188">
        <ele>34.400024414062</ele>
        <time>2015-03-08T08:28:22Z</time>
      </trkpt>
      <trkpt lat="49.23405" lon="1.93305">
        <ele>33.400024414062</ele>
        <time>2015-03-08T08:28:44Z</time>
      </trkpt>
      <trkpt lat="49.23352" lon="1.93419">
        <ele>33.400024414062</ele>
        <time>2015-03-08T08:29:07Z</time>
      </trkpt>
      <trkpt lat="49.23305" lon="1.93506">
        <ele>33</ele>
        <time>2015-03-08T08:29:27Z</time>
      </trkpt>
      <trkpt lat="49.23261" lon="1.93602">
        <ele>33.400024414062</ele>
        <time>2015-03-08T08:29:47Z</time>
      </trkpt>
      <trkpt lat="49.23209" lon="1.93707">
        <ele>33.799987792969</ele>
        <time>2015-03-08T08:30:09Z</time>
      </trkpt>
      <trkpt lat="49.23191" lon="1.93748">
        <ele>33.599975585938</ele>
        <time>2015-03-08T08:30:17Z</time>
      </trkpt>
      <trkpt lat="49.23185" lon="1.93762">
        <ele>33.799987792969</ele>
        <time>2015-03-08T08:30:20Z</time>
      </trkpt>
      <trkpt lat="49.23179" lon="1.93778">
        <ele>34.200012207031</ele>
        <time>2015-03-08T08:30:23Z</time>
      </trkpt>
      <trkpt lat="49.2314" lon="1.93857">
        <ele>34.400024414062</ele>
        <time>2015-03-08T08:30:38Z</time>
      </trkpt>
      <trkpt lat="49.23069" lon="1.9401">
        <ele>35.400024414062</ele>
        <time>2015-03-08T08:31:06Z</time>
      </trkpt>
      <trkpt lat="49.23053" lon="1.9405">
        <ele>35.200012207031</ele>
        <time>2015-03-08T08:31:13Z</time>
      </trkpt>
      <trkpt lat="49.23032" lon="1.94091">
        <ele>35</ele>
        <time>2015-03-08T08:31:22Z</time>
      </trkpt>
      <trkpt lat="49.23027" lon="1.941">
        <ele>34.799987792969</ele>
        <time>2015-03-08T08:31:24Z</time>
      </trkpt>
      <trkpt lat="49.23005" lon="1.94151">
        <ele>34.599975585938</ele>
        <time>2015-03-08T08:31:35Z</time>
      </trkpt>
      <trkpt lat="49.22983" lon="1.94197">
        <ele>34.599975585938</ele>
        <time>2015-03-08T08:31:44Z</time>
      </trkpt>
      <trkpt lat="49.2298" lon="1.94216">
        <ele>34.799987792969</ele>
        <time>2015-03-08T08:31:47Z</time>
      </trkpt>
      <trkpt lat="49.22962" lon="1.94309">
        <ele>35.400024414062</ele>
        <time>2015-03-08T08:32:01Z</time>
      </trkpt>
      <trkpt lat="49.22922" lon="1.94415">
        <ele>34.799987792969</ele>
        <time>2015-03-08T08:32:17Z</time>
      </trkpt>
      <trkpt lat="49.22893" lon="1.94468">
        <ele>35</ele>
        <time>2015-03-08T08:32:26Z</time>
      </trkpt>
      <trkpt lat="49.22841" lon="1.94566">
        <ele>35.400024414062</ele>
        <time>2015-03-08T08:32:42Z</time>
      </trkpt>
      <trkpt lat="49.22809" lon="1.9461">
        <ele>35.200012207031</ele>
        <time>2015-03-08T08:32:50Z</time>
      </trkpt>
      <trkpt lat="49.22723" lon="1.94729">
        <ele>35.799987792969</ele>
        <time>2015-03-08T08:33:10Z</time>
      </trkpt>
      <trkpt lat="49.22669" lon="1.94798">
        <ele>36.400024414062</ele>
        <time>2015-03-08T08:33:22Z</time>
      </trkpt>
      <trkpt lat="49.22645" lon="1.94798">
        <ele>36.799987792969</ele>
        <time>2015-03-08T08:33:26Z</time>
      </trkpt>
      <trkpt lat="49.22628" lon="1.94785">
        <ele>36.799987792969</ele>
        <time>2015-03-08T08:33:29Z</time>
      </trkpt>
      <trkpt lat="49.22569" lon="1.94744">
        <ele>38.200012207031</ele>
        <time>2015-03-08T08:33:41Z</time>
      </trkpt>
      <trkpt lat="49.22552" lon="1.94752">
        <ele>39.400024414062</ele>
        <time>2015-03-08T08:33:45Z</time>
      </trkpt>
      <trkpt lat="49.22549" lon="1.94756">
        <ele>39.599975585938</ele>
        <time>2015-03-08T08:33:46Z</time>
      </trkpt>
      <trkpt lat="49.22536" lon="1.94748">
        <ele>40.799987792969</ele>
        <time>2015-03-08T08:33:51Z</time>
      </trkpt>
      <trkpt lat="49.22533" lon="1.94737">
        <ele>41.400024414062</ele>
        <time>2015-03-08T08:33:53Z</time>
      </trkpt>
      <trkpt lat="49.22504" lon="1.94647">
        <ele>45</ele>
        <time>2015-03-08T08:34:11Z</time>
      </trkpt>
      <trkpt lat="49.22478" lon="1.946">
        <ele>48</ele>
        <time>2015-03-08T08:34:22Z</time>
      </trkpt>
      <trkpt lat="49.22457" lon="1.94607">
        <ele>49.400024414062</ele>
        <time>2015-03-08T08:34:28Z</time>
      </trkpt>
      <trkpt lat="49.22445" lon="1.9463">
        <ele>50.200012207031</ele>
        <time>2015-03-08T08:34:33Z</time>
      </trkpt>
      <trkpt lat="49.22428" lon="1.94663">
        <ele>51</ele>
        <time>2015-03-08T08:34:40Z</time>
      </trkpt>
      <trkpt lat="49.22406" lon="1.94682">
        <ele>52.400024414062</ele>
        <time>2015-03-08T08:34:47Z</time>
      </trkpt>
      <trkpt lat="49.22397" lon="1.94669">
        <ele>53.200012207031</ele>
        <time>2015-03-08T08:34:50Z</time>
      </trkpt>
      <trkpt lat="49.22403" lon="1.94634">
        <ele>54.400024414062</ele>
        <time>2015-03-08T08:34:56Z</time>
      </trkpt>
      <trkpt lat="49.22418" lon="1.94601">
        <ele>55.799987792969</ele>
        <time>2015-03-08T08:35:03Z</time>
      </trkpt>
      <trkpt lat="49.22431" lon="1.9458">
        <ele>56.799987792969</ele>
        <time>2015-03-08T08:35:08Z</time>
      </trkpt>
      <trkpt lat="49.2245" lon="1.94545">
        <ele>57.799987792969</ele>
        <time>2015-03-08T08:35:15Z</time>
      </trkpt>
      <trkpt lat="49.2247" lon="1.94466">
        <ele>59.799987792969</ele>
        <time>2015-03-08T08:35:28Z</time>
      </trkpt>
      <trkpt lat="49.22457" lon="1.944">
        <ele>62.200012207031</ele>
        <time>2015-03-08T08:35:41Z</time>
      </trkpt>
      <trkpt lat="49.22455" lon="1.94395">
        <ele>62.400024414062</ele>
        <time>2015-03-08T08:35:42Z</time>
      </trkpt>
      <trkpt lat="49.22433" lon="1.94336">
        <ele>65.599975585938</ele>
        <time>2015-03-08T08:35:56Z</time>
      </trkpt>
      <trkpt lat="49.2243" lon="1.94335">
        <ele>65.799987792969</ele>
        <time>2015-03-08T08:35:57Z</time>
      </trkpt>
      <trkpt lat="49.22414" lon="1.94329">
        <ele>69</ele>
        <time>2015-03-08T08:36:04Z</time>
      </trkpt>
      <trkpt lat="49.22413" lon="1.94349">
        <ele>70.799987792969</ele>
        <time>2015-03-08T08:36:09Z</time>
      </trkpt>
      <trkpt lat="49.2241" lon="1.94412">
        <ele>72.599975585938</ele>
        <time>2015-03-08T08:36:27Z</time>
      </trkpt>
      <trkpt lat="49.2241" lon="1.94418">
        <ele>72.799987792969</ele>
        <time>2015-03-08T08:36:31Z</time>
      </trkpt>
      <trkpt lat="49.22397" lon="1.9442">
        <ele>75</ele>
        <time>2015-03-08T08:36:41Z</time>
      </trkpt>
      <trkpt lat="49.22396" lon="1.94418">
        <ele>75.200012207031</ele>
        <time>2015-03-08T08:36:42Z</time>
      </trkpt>
      <trkpt lat="49.22387" lon="1.94404">
        <ele>76.400024414062</ele>
        <time>2015-03-08T08:36:48Z</time>
      </trkpt>
      <trkpt lat="49.22372" lon="1.94396">
        <ele>77.599975585938</ele>
        <time>2015-03-08T08:36:54Z</time>
      </trkpt>
      <trkpt lat="49.22366" lon="1.94392">
        <ele>78.599975585938</ele>
        <time>2015-03-08T08:36:57Z</time>
      </trkpt>
      <trkpt lat="49.22339" lon="1.9438">
        <ele>82</ele>
        <time>2015-03-08T08:37:11Z</time>
      </trkpt>
      <trkpt lat="49.22317" lon="1.94368">
        <ele>84.200012207031</ele>
        <time>2015-03-08T08:37:22Z</time>
      </trkpt>
      <trkpt lat="49.22314" lon="1.94369">
        <ele>84.799987792969</ele>
        <time>2015-03-08T08:37:24Z</time>
      </trkpt>
      <trkpt lat="49.22307" lon="1.9437">
        <ele>85</ele>
        <time>2015-03-08T08:37:28Z</time>
      </trkpt>
      <trkpt lat="49.22309" lon="1.94352">
        <ele>85.200012207031</ele>
        <time>2015-03-08T08:37:34Z</time>
      </trkpt>
      <trkpt lat="49.22316" lon="1.94352">
        <ele>84.799987792969</ele>
        <time>2015-03-08T08:37:37Z</time>
      </trkpt>
      <trkpt lat="49.22318" lon="1.94354">
        <ele>84.599975585938</ele>
        <time>2015-03-08T08:37:38Z</time>
      </trkpt>
      <trkpt lat="49.22306" lon="1.94386">
        <ele>85.599975585938</ele>
        <time>2015-03-08T08:37:47Z</time>
      </trkpt>
      <trkpt lat="49.22301" lon="1.944">
        <ele>86.200012207031</ele>
        <time>2015-03-08T08:37:51Z</time>
      </trkpt>
      <trkpt lat="49.223" lon="1.94404">
        <ele>86.400024414062</ele>
        <time>2015-03-08T08:37:52Z</time>
      </trkpt>
      <trkpt lat="49.22271" lon="1.94469">
        <ele>89.599975585938</ele>
        <time>2015-03-08T08:38:14Z</time>
      </trkpt>
      <trkpt lat="49.22249" lon="1.945">
        <ele>91.200012207031</ele>
        <time>2015-03-08T08:38:27Z</time>
      </trkpt>
      <trkpt lat="49.22217" lon="1.94521">
        <ele>93.799987792969</ele>
        <time>2015-03-08T08:38:43Z</time>
      </trkpt>
      <trkpt lat="49.22187" lon="1.94525">
        <ele>97.200012207031</ele>
        <time>2015-03-08T08:38:57Z</time>
      </trkpt>
      <trkpt lat="49.22158" lon="1.94526">
        <ele>100.40002441406</ele>
        <time>2015-03-08T08:39:10Z</time>
      </trkpt>
      <trkpt lat="49.22145" lon="1.94526">
        <ele>101.79998779297</ele>
        <time>2015-03-08T08:39:15Z</time>
      </trkpt>
      <trkpt lat="49.22138" lon="1.94548">
        <ele>102.59997558594</ele>
        <time>2015-03-08T08:39:22Z</time>
      </trkpt>
      <trkpt lat="49.22124" lon="1.94628">
        <ele>102.40002441406</ele>
        <time>2015-03-08T08:39:38Z</time>
      </trkpt>
      <trkpt lat="49.2212" lon="1.94643">
        <ele>102</ele>
        <time>2015-03-08T08:39:46Z</time>
      </trkpt>
      <trkpt lat="49.2212" lon="1.94643">
        <ele>101.79998779297</ele>
        <time>2015-03-08T08:40:28Z</time>
      </trkpt>
      <trkpt lat="49.22114" lon="1.94668">
        <ele>100.79998779297</ele>
        <time>2015-03-08T08:42:33Z</time>
      </trkpt>
      <trkpt lat="49.22091" lon="1.94746">
        <ele>100</ele>
        <time>2015-03-08T08:42:46Z</time>
      </trkpt>
      <trkpt lat="49.22078" lon="1.94784">
        <ele>99.599975585938</ele>
        <time>2015-03-08T08:42:52Z</time>
      </trkpt>
      <trkpt lat="49.22059" lon="1.9482">
        <ele>99.400024414062</ele>
        <time>2015-03-08T08:42:58Z</time>
      </trkpt>
      <trkpt lat="49.21974" lon="1.94933">
        <ele>97.799987792969</ele>
        <time>2015-03-08T08:43:20Z</time>
      </trkpt>
      <trkpt lat="49.21875" lon="1.95009">
        <ele>97.799987792969</ele>
        <time>2015-03-08T08:43:42Z</time>
      </trkpt>
      <trkpt lat="49.21811" lon="1.95046">
        <ele>97.200012207031</ele>
        <time>2015-03-08T08:43:55Z</time>
      </trkpt>
      <trkpt lat="49.21763" lon="1.95097">
        <ele>95.799987792969</ele>
        <time>2015-03-08T08:44:05Z</time>
      </trkpt>
      <trkpt lat="49.21751" lon="1.95106">
        <ele>95.400024414062</ele>
        <time>2015-03-08T08:44:07Z</time>
      </trkpt>
      <trkpt lat="49.21714" lon="1.95129">
        <ele>93.599975585938</ele>
        <time>2015-03-08T08:44:13Z</time>
      </trkpt>
      <trkpt lat="49.21692" lon="1.95189">
        <ele>91</ele>
        <time>2015-03-08T08:44:19Z</time>
      </trkpt>
      <trkpt lat="49.21696" lon="1.95227">
        <ele>91</ele>
        <time>2015-03-08T08:44:23Z</time>
      </trkpt>
      <trkpt lat="49.21698" lon="1.95236">
        <ele>90.799987792969</ele>
        <time>2015-03-08T08:44:24Z</time>
      </trkpt>
      <trkpt lat="49.2169" lon="1.95316">
        <ele>91.799987792969</ele>
        <time>2015-03-08T08:44:34Z</time>
      </trkpt>
      <trkpt lat="49.21687" lon="1.95323">
        <ele>92.200012207031</ele>
        <time>2015-03-08T08:44:35Z</time>
      </trkpt>
      <trkpt lat="49.21645" lon="1.95434">
        <ele>94.599975585938</ele>
        <time>2015-03-08T08:44:53Z</time>
      </trkpt>
      <trkpt lat="49.21596" lon="1.95557">
        <ele>95.400024414062</ele>
        <time>2015-03-08T08:45:14Z</time>
      </trkpt>
      <trkpt lat="49.21583" lon="1.95597">
        <ele>94.599975585938</ele>
        <time>2015-03-08T08:45:20Z</time>
      </trkpt>
      <trkpt lat="49.21575" lon="1.95625">
        <ele>95.799987792969</ele>
        <time>2015-03-08T08:45:24Z</time>
      </trkpt>
      <trkpt lat="49.21555" lon="1.95703">
        <ele>99</ele>
        <time>2015-03-08T08:45:35Z</time>
      </trkpt>
      <trkpt lat="49.21538" lon="1.95781">
        <ele>101.59997558594</ele>
        <time>2015-03-08T08:45:46Z</time>
      </trkpt>
      <trkpt lat="49.21507" lon="1.95856">
        <ele>103.79998779297</ele>
        <time>2015-03-08T08:45:58Z</time>
      </trkpt>
      <trkpt lat="49.21496" lon="1.95872">
        <ele>104.79998779297</ele>
        <time>2015-03-08T08:46:01Z</time>
      </trkpt>
      <trkpt lat="49.21467" lon="1.95912">
        <ele>106</ele>
        <time>2015-03-08T08:46:09Z</time>
      </trkpt>
      <trkpt lat="49.21452" lon="1.95951">
        <ele>106.79998779297</ele>
        <time>2015-03-08T08:46:15Z</time>
      </trkpt>
      <trkpt lat="49.21436" lon="1.96041">
        <ele>108.20001220703</ele>
        <time>2015-03-08T08:46:28Z</time>
      </trkpt>
      <trkpt lat="49.21412" lon="1.96157">
        <ele>109.20001220703</ele>
        <time>2015-03-08T08:46:44Z</time>
      </trkpt>
      <trkpt lat="49.21389" lon="1.96218">
        <ele>109.59997558594</ele>
        <time>2015-03-08T08:46:53Z</time>
      </trkpt>
      <trkpt lat="49.21326" lon="1.96377">
        <ele>112.79998779297</ele>
        <time>2015-03-08T08:47:17Z</time>
      </trkpt>
      <trkpt lat="49.21284" lon="1.96485">
        <ele>116.20001220703</ele>
        <time>2015-03-08T08:47:33Z</time>
      </trkpt>
      <trkpt lat="49.21282" lon="1.96492">
        <ele>116.40002441406</ele>
        <time>2015-03-08T08:47:34Z</time>
      </trkpt>
      <trkpt lat="49.21228" lon="1.96688">
        <ele>117</ele>
        <time>2015-03-08T08:48:01Z</time>
      </trkpt>
      <trkpt lat="49.21171" lon="1.96763">
        <ele>117</ele>
        <time>2015-03-08T08:48:14Z</time>
      </trkpt>
      <trkpt lat="49.21137" lon="1.96808">
        <ele>117.40002441406</ele>
        <time>2015-03-08T08:48:22Z</time>
      </trkpt>
      <trkpt lat="49.21087" lon="1.96894">
        <ele>119.20001220703</ele>
        <time>2015-03-08T08:48:37Z</time>
      </trkpt>
      <trkpt lat="49.21038" lon="1.96992">
        <ele>120.79998779297</ele>
        <time>2015-03-08T08:48:56Z</time>
      </trkpt>
      <trkpt lat="49.20997" lon="1.97079">
        <ele>121.59997558594</ele>
        <time>2015-03-08T08:49:15Z</time>
      </trkpt>
      <trkpt lat="49.20971" lon="1.97128">
        <ele>122.79998779297</ele>
        <time>2015-03-08T08:49:29Z</time>
      </trkpt>
      <trkpt lat="49.20942" lon="1.97234">
        <ele>122.20001220703</ele>
        <time>2015-03-08T08:49:50Z</time>
      </trkpt>
      <trkpt lat="49.20932" lon="1.97296">
        <ele>120</ele>
        <time>2015-03-08T08:49:59Z</time>
      </trkpt>
      <trkpt lat="49.20918" lon="1.97329">
        <ele>119.79998779297</ele>
        <time>2015-03-08T08:50:07Z</time>
      </trkpt>
      <trkpt lat="49.20914" lon="1.97332">
        <ele>119.79998779297</ele>
        <time>2015-03-08T08:50:08Z</time>
      </trkpt>
      <trkpt lat="49.20895" lon="1.97349">
        <ele>119.20001220703</ele>
        <time>2015-03-08T08:50:13Z</time>
      </trkpt>
      <trkpt lat="49.2088" lon="1.97386">
        <ele>119.59997558594</ele>
        <time>2015-03-08T08:50:19Z</time>
      </trkpt>
      <trkpt lat="49.20868" lon="1.97445">
        <ele>120</ele>
        <time>2015-03-08T08:50:29Z</time>
      </trkpt>
      <trkpt lat="49.20859" lon="1.97506">
        <ele>121</ele>
        <time>2015-03-08T08:50:39Z</time>
      </trkpt>
      <trkpt lat="49.20857" lon="1.97528">
        <ele>121.40002441406</ele>
        <time>2015-03-08T08:50:43Z</time>
      </trkpt>
      <trkpt lat="49.20858" lon="1.97532">
        <ele>121.40002441406</ele>
        <time>2015-03-08T08:50:44Z</time>
      </trkpt>
      <trkpt lat="49.20863" lon="1.97557">
        <ele>121.20001220703</ele>
        <time>2015-03-08T08:50:49Z</time>
      </trkpt>
      <trkpt lat="49.20879" lon="1.97604">
        <ele>120.20001220703</ele>
        <time>2015-03-08T08:50:57Z</time>
      </trkpt>
      <trkpt lat="49.20876" lon="1.97632">
        <ele>119.59997558594</ele>
        <time>2015-03-08T08:51:02Z</time>
      </trkpt>
      <trkpt lat="49.20873" lon="1.97643">
        <ele>119.59997558594</ele>
        <time>2015-03-08T08:51:04Z</time>
      </trkpt>
      <trkpt lat="49.20837" lon="1.97636">
        <ele>120</ele>
        <time>2015-03-08T08:51:14Z</time>
      </trkpt>
      <trkpt lat="49.20777" lon="1.97631">
        <ele>121</ele>
        <time>2015-03-08T08:51:27Z</time>
      </trkpt>
      <trkpt lat="49.20752" lon="1.97655">
        <ele>121.20001220703</ele>
        <time>2015-03-08T08:51:34Z</time>
      </trkpt>
      <trkpt lat="49.20748" lon="1.97668">
        <ele>121.79998779297</ele>
        <time>2015-03-08T08:51:37Z</time>
      </trkpt>
      <trkpt lat="49.20723" lon="1.97745">
        <ele>122</ele>
        <time>2015-03-08T08:51:54Z</time>
      </trkpt>
      <trkpt lat="49.20703" lon="1.97779">
        <ele>122.79998779297</ele>
        <time>2015-03-08T08:52:01Z</time>
      </trkpt>
      <trkpt lat="49.20688" lon="1.97849">
        <ele>122</ele>
        <time>2015-03-08T08:52:14Z</time>
      </trkpt>
      <trkpt lat="49.20687" lon="1.97929">
        <ele>118.40002441406</ele>
        <time>2015-03-08T08:52:20Z</time>
      </trkpt>
      <trkpt lat="49.20685" lon="1.97995">
        <ele>115.40002441406</ele>
        <time>2015-03-08T08:52:24Z</time>
      </trkpt>
      <trkpt lat="49.20684" lon="1.98031">
        <ele>112.40002441406</ele>
        <time>2015-03-08T08:52:26Z</time>
      </trkpt>
      <trkpt lat="49.20682" lon="1.98088">
        <ele>108.59997558594</ele>
        <time>2015-03-08T08:52:29Z</time>
      </trkpt>
      <trkpt lat="49.20681" lon="1.98146">
        <ele>104.59997558594</ele>
        <time>2015-03-08T08:52:32Z</time>
      </trkpt>
      <trkpt lat="49.20679" lon="1.98222">
        <ele>101.20001220703</ele>
        <time>2015-03-08T08:52:36Z</time>
      </trkpt>
      <trkpt lat="49.20676" lon="1.98321">
        <ele>99.799987792969</ele>
        <time>2015-03-08T08:52:42Z</time>
      </trkpt>
      <trkpt lat="49.20676" lon="1.98372">
        <ele>99.799987792969</ele>
        <time>2015-03-08T08:52:46Z</time>
      </trkpt>
      <trkpt lat="49.20694" lon="1.98406">
        <ele>100.20001220703</ele>
        <time>2015-03-08T08:52:50Z</time>
      </trkpt>
      <trkpt lat="49.20711" lon="1.98424">
        <ele>100.40002441406</ele>
        <time>2015-03-08T08:52:53Z</time>
      </trkpt>
      <trkpt lat="49.20772" lon="1.985">
        <ele>102</ele>
        <time>2015-03-08T08:53:05Z</time>
      </trkpt>
      <trkpt lat="49.20794" lon="1.98521">
        <ele>102.59997558594</ele>
        <time>2015-03-08T08:53:09Z</time>
      </trkpt>
      <trkpt lat="49.20823" lon="1.98558">
        <ele>103.40002441406</ele>
        <time>2015-03-08T08:53:15Z</time>
      </trkpt>
      <trkpt lat="49.20847" lon="1.98588">
        <ele>103.79998779297</ele>
        <time>2015-03-08T08:53:20Z</time>
      </trkpt>
      <trkpt lat="49.20885" lon="1.98638">
        <ele>104</ele>
        <time>2015-03-08T08:53:30Z</time>
      </trkpt>
      <trkpt lat="49.20898" lon="1.98649">
        <ele>104.40002441406</ele>
        <time>2015-03-08T08:53:33Z</time>
      </trkpt>
      <trkpt lat="49.20902" lon="1.98654">
        <ele>104.40002441406</ele>
        <time>2015-03-08T08:53:34Z</time>
      </trkpt>
      <trkpt lat="49.20974" lon="1.9874">
        <ele>106.59997558594</ele>
        <time>2015-03-08T08:53:53Z</time>
      </trkpt>
      <trkpt lat="49.20985" lon="1.98754">
        <ele>106.79998779297</ele>
        <time>2015-03-08T08:53:56Z</time>
      </trkpt>
      <trkpt lat="49.2105" lon="1.9885">
        <ele>108.20001220703</ele>
        <time>2015-03-08T08:54:15Z</time>
      </trkpt>
      <trkpt lat="49.21077" lon="1.98887">
        <ele>108.40002441406</ele>
        <time>2015-03-08T08:54:23Z</time>
      </trkpt>
      <trkpt lat="49.21095" lon="1.98916">
        <ele>108.20001220703</ele>
        <time>2015-03-08T08:54:29Z</time>
      </trkpt>
      <trkpt lat="49.21114" lon="1.98987">
        <ele>108.20001220703</ele>
        <time>2015-03-08T08:54:40Z</time>
      </trkpt>
      <trkpt lat="49.21152" lon="1.99154">
        <ele>107.20001220703</ele>
        <time>2015-03-08T08:55:04Z</time>
      </trkpt>
      <trkpt lat="49.21161" lon="1.99196">
        <ele>106.59997558594</ele>
        <time>2015-03-08T08:55:10Z</time>
      </trkpt>
      <trkpt lat="49.21163" lon="1.99203">
        <ele>106.59997558594</ele>
        <time>2015-03-08T08:55:11Z</time>
      </trkpt>
      <trkpt lat="49.21176" lon="1.99253">
        <ele>106.20001220703</ele>
        <time>2015-03-08T08:55:18Z</time>
      </trkpt>
      <trkpt lat="49.21197" lon="1.99315">
        <ele>105.59997558594</ele>
        <time>2015-03-08T08:55:28Z</time>
      </trkpt>
      <trkpt lat="49.21257" lon="1.99467">
        <ele>107</ele>
        <time>2015-03-08T08:55:53Z</time>
      </trkpt>
      <trkpt lat="49.21272" lon="1.99502">
        <ele>107.40002441406</ele>
        <time>2015-03-08T08:55:59Z</time>
      </trkpt>
      <trkpt lat="49.21319" lon="1.99614">
        <ele>108.79998779297</ele>
        <time>2015-03-08T08:56:18Z</time>
      </trkpt>
      <trkpt lat="49.21328" lon="1.99639">
        <ele>109</ele>
        <time>2015-03-08T08:56:22Z</time>
      </trkpt>
      <trkpt lat="49.21349" lon="1.99781">
        <ele>109.59997558594</ele>
        <time>2015-03-08T08:56:43Z</time>
      </trkpt>
      <trkpt lat="49.2135" lon="2.00057">
        <ele>108.40002441406</ele>
        <time>2015-03-08T08:57:18Z</time>
      </trkpt>
      <trkpt lat="49.21349" lon="2.00117">
        <ele>108</ele>
        <time>2015-03-08T08:57:25Z</time>
      </trkpt>
      <trkpt lat="49.21352" lon="2.00148">
        <ele>108</ele>
        <time>2015-03-08T08:57:29Z</time>
      </trkpt>
      <trkpt lat="49.2137" lon="2.00226">
        <ele>107.40002441406</ele>
        <time>2015-03-08T08:57:40Z</time>
      </trkpt>
      <trkpt lat="49.21386" lon="2.00288">
        <ele>107.40002441406</ele>
        <time>2015-03-08T08:57:49Z</time>
      </trkpt>
      <trkpt lat="49.2139" lon="2.00309">
        <ele>107.40002441406</ele>
        <time>2015-03-08T08:57:52Z</time>
      </trkpt>
      <trkpt lat="49.21445" lon="2.00531">
        <ele>107</ele>
        <time>2015-03-08T08:58:26Z</time>
      </trkpt>
      <trkpt lat="49.21456" lon="2.00579">
        <ele>107.40002441406</ele>
        <time>2015-03-08T08:58:32Z</time>
      </trkpt>
      <trkpt lat="49.21463" lon="2.00685">
        <ele>106.40002441406</ele>
        <time>2015-03-08T08:58:43Z</time>
      </trkpt>
      <trkpt lat="49.21468" lon="2.00799">
        <ele>104.59997558594</ele>
        <time>2015-03-08T08:58:53Z</time>
      </trkpt>
      <trkpt lat="49.21479" lon="2.00868">
        <ele>103.59997558594</ele>
        <time>2015-03-08T08:58:59Z</time>
      </trkpt>
      <trkpt lat="49.21499" lon="2.00955">
        <ele>101.79998779297</ele>
        <time>2015-03-08T08:59:07Z</time>
      </trkpt>
      <trkpt lat="49.21522" lon="2.01061">
        <ele>98.400024414062</ele>
        <time>2015-03-08T08:59:18Z</time>
      </trkpt>
      <trkpt lat="49.21524" lon="2.01065">
        <ele>98.200012207031</ele>
        <time>2015-03-08T08:59:19Z</time>
      </trkpt>
      <trkpt lat="49.21531" lon="2.01079">
        <ele>97</ele>
        <time>2015-03-08T08:59:28Z</time>
      </trkpt>
      <trkpt lat="49.21552" lon="2.01123">
        <ele>95</ele>
        <time>2015-03-08T08:59:42Z</time>
      </trkpt>
      <trkpt lat="49.21581" lon="2.01171">
        <ele>92.400024414062</ele>
        <time>2015-03-08T08:59:47Z</time>
      </trkpt>
      <trkpt lat="49.21598" lon="2.01213">
        <ele>89.200012207031</ele>
        <time>2015-03-08T08:59:51Z</time>
      </trkpt>
      <trkpt lat="49.21603" lon="2.01233">
        <ele>87.799987792969</ele>
        <time>2015-03-08T08:59:53Z</time>
      </trkpt>
      <trkpt lat="49.21611" lon="2.01271">
        <ele>85.599975585938</ele>
        <time>2015-03-08T08:59:57Z</time>
      </trkpt>
      <trkpt lat="49.21613" lon="2.01339">
        <ele>82</ele>
        <time>2015-03-08T09:00:02Z</time>
      </trkpt>
      <trkpt lat="49.21611" lon="2.0137">
        <ele>78</ele>
        <time>2015-03-08T09:00:04Z</time>
      </trkpt>
      <trkpt lat="49.21608" lon="2.01401">
        <ele>75.400024414062</ele>
        <time>2015-03-08T09:00:06Z</time>
      </trkpt>
      <trkpt lat="49.21608" lon="2.0145">
        <ele>72</ele>
        <time>2015-03-08T09:00:09Z</time>
      </trkpt>
      <trkpt lat="49.21613" lon="2.01497">
        <ele>69</ele>
        <time>2015-03-08T09:00:12Z</time>
      </trkpt>
      <trkpt lat="49.21621" lon="2.01536">
        <ele>67</ele>
        <time>2015-03-08T09:00:15Z</time>
      </trkpt>
      <trkpt lat="49.21639" lon="2.01583">
        <ele>63.799987792969</ele>
        <time>2015-03-08T09:00:20Z</time>
      </trkpt>
      <trkpt lat="49.21626" lon="2.016">
        <ele>62.799987792969</ele>
        <time>2015-03-08T09:00:26Z</time>
      </trkpt>
      <trkpt lat="49.21566" lon="2.01641">
        <ele>62.200012207031</ele>
        <time>2015-03-08T09:00:38Z</time>
      </trkpt>
      <trkpt lat="49.21541" lon="2.01658">
        <ele>62</ele>
        <time>2015-03-08T09:00:42Z</time>
      </trkpt>
      <trkpt lat="49.2149" lon="2.01714">
        <ele>61.599975585938</ele>
        <time>2015-03-08T09:00:51Z</time>
      </trkpt>
      <trkpt lat="49.21424" lon="2.01792">
        <ele>58.599975585938</ele>
        <time>2015-03-08T09:01:01Z</time>
      </trkpt>
      <trkpt lat="49.2137" lon="2.01852">
        <ele>56.200012207031</ele>
        <time>2015-03-08T09:01:08Z</time>
      </trkpt>
      <trkpt lat="49.21334" lon="2.01918">
        <ele>55.799987792969</ele>
        <time>2015-03-08T09:01:14Z</time>
      </trkpt>
      <trkpt lat="49.21319" lon="2.01978">
        <ele>56.599975585938</ele>
        <time>2015-03-08T09:01:19Z</time>
      </trkpt>
      <trkpt lat="49.21282" lon="2.02142">
        <ele>59.200012207031</ele>
        <time>2015-03-08T09:01:34Z</time>
      </trkpt>
      <trkpt lat="49.21268" lon="2.02215">
        <ele>60.400024414062</ele>
        <time>2015-03-08T09:01:41Z</time>
      </trkpt>
      <trkpt lat="49.21267" lon="2.02225">
        <ele>60.599975585938</ele>
        <time>2015-03-08T09:01:42Z</time>
      </trkpt>
      <trkpt lat="49.21252" lon="2.02402">
        <ele>63.799987792969</ele>
        <time>2015-03-08T09:02:00Z</time>
      </trkpt>
      <trkpt lat="49.21248" lon="2.02456">
        <ele>65</ele>
        <time>2015-03-08T09:02:06Z</time>
      </trkpt>
      <trkpt lat="49.2124" lon="2.02536">
        <ele>66.200012207031</ele>
        <time>2015-03-08T09:02:15Z</time>
      </trkpt>
      <trkpt lat="49.21227" lon="2.0267">
        <ele>69.400024414062</ele>
        <time>2015-03-08T09:02:31Z</time>
      </trkpt>
      <trkpt lat="49.2122" lon="2.02719">
        <ele>70</ele>
        <time>2015-03-08T09:02:39Z</time>
      </trkpt>
      <trkpt lat="49.21218" lon="2.02721">
        <ele>70.200012207031</ele>
        <time>2015-03-08T09:02:40Z</time>
      </trkpt>
      <trkpt lat="49.21193" lon="2.02717">
        <ele>71</ele>
        <time>2015-03-08T09:02:49Z</time>
      </trkpt>
      <trkpt lat="49.21159" lon="2.02719">
        <ele>70.599975585938</ele>
        <time>2015-03-08T09:03:02Z</time>
      </trkpt>
      <trkpt lat="49.21095" lon="2.02726">
        <ele>69.400024414062</ele>
        <time>2015-03-08T09:03:22Z</time>
      </trkpt>
      <trkpt lat="49.21012" lon="2.027">
        <ele>70.200012207031</ele>
        <time>2015-03-08T09:03:46Z</time>
      </trkpt>
      <trkpt lat="49.20932" lon="2.02656">
        <ele>72.799987792969</ele>
        <time>2015-03-08T09:04:13Z</time>
      </trkpt>
      <trkpt lat="49.20879" lon="2.02651">
        <ele>74.599975585938</ele>
        <time>2015-03-08T09:04:28Z</time>
      </trkpt>
      <trkpt lat="49.20812" lon="2.02663">
        <ele>76.799987792969</ele>
        <time>2015-03-08T09:04:48Z</time>
      </trkpt>
      <trkpt lat="49.20754" lon="2.02652">
        <ele>77.799987792969</ele>
        <time>2015-03-08T09:05:05Z</time>
      </trkpt>
      <trkpt lat="49.2068" lon="2.0261">
        <ele>79.400024414062</ele>
        <time>2015-03-08T09:05:28Z</time>
      </trkpt>
      <trkpt lat="49.20629" lon="2.02592">
        <ele>80.400024414062</ele>
        <time>2015-03-08T09:05:43Z</time>
      </trkpt>
      <trkpt lat="49.20568" lon="2.02573">
        <ele>82.599975585938</ele>
        <time>2015-03-08T09:06:01Z</time>
      </trkpt>
      <trkpt lat="49.20508" lon="2.02563">
        <ele>84.400024414062</ele>
        <time>2015-03-08T09:06:21Z</time>
      </trkpt>
      <trkpt lat="49.20461" lon="2.02563">
        <ele>85.599975585938</ele>
        <time>2015-03-08T09:06:36Z</time>
      </trkpt>
      <trkpt lat="49.20427" lon="2.02582">
        <ele>86.400024414062</ele>
        <time>2015-03-08T09:06:49Z</time>
      </trkpt>
      <trkpt lat="49.20416" lon="2.02587">
        <ele>87.200012207031</ele>
        <time>2015-03-08T09:06:58Z</time>
      </trkpt>
      <trkpt lat="49.20417" lon="2.02587">
        <ele>87</ele>
        <time>2015-03-08T09:07:39Z</time>
      </trkpt>
      <trkpt lat="49.20404" lon="2.02589">
        <ele>87</ele>
        <time>2015-03-08T09:07:48Z</time>
      </trkpt>
      <trkpt lat="49.20383" lon="2.02597">
        <ele>87.400024414062</ele>
        <time>2015-03-08T09:08:01Z</time>
      </trkpt>
      <trkpt lat="49.20349" lon="2.02597">
        <ele>89</ele>
        <time>2015-03-08T09:08:14Z</time>
      </trkpt>
      <trkpt lat="49.20347" lon="2.02596">
        <ele>89</ele>
        <time>2015-03-08T09:08:15Z</time>
      </trkpt>
      <trkpt lat="49.20328" lon="2.02575">
        <ele>90</ele>
        <time>2015-03-08T09:08:24Z</time>
      </trkpt>
      <trkpt lat="49.20325" lon="2.02567">
        <ele>90.200012207031</ele>
        <time>2015-03-08T09:08:26Z</time>
      </trkpt>
      <trkpt lat="49.20288" lon="2.02489">
        <ele>93.400024414062</ele>
        <time>2015-03-08T09:08:48Z</time>
      </trkpt>
      <trkpt lat="49.20281" lon="2.02474">
        <ele>95</ele>
        <time>2015-03-08T09:08:53Z</time>
      </trkpt>
      <trkpt lat="49.20271" lon="2.0245">
        <ele>97</ele>
        <time>2015-03-08T09:09:01Z</time>
      </trkpt>
      <trkpt lat="49.20262" lon="2.02429">
        <ele>98.200012207031</ele>
        <time>2015-03-08T09:09:08Z</time>
      </trkpt>
      <trkpt lat="49.20225" lon="2.02351">
        <ele>102.20001220703</ele>
        <time>2015-03-08T09:09:36Z</time>
      </trkpt>
      <trkpt lat="49.20214" lon="2.02299">
        <ele>105.40002441406</ele>
        <time>2015-03-08T09:09:52Z</time>
      </trkpt>
      <trkpt lat="49.2021" lon="2.02268">
        <ele>106.59997558594</ele>
        <time>2015-03-08T09:10:01Z</time>
      </trkpt>
      <trkpt lat="49.20199" lon="2.02151">
        <ele>107.20001220703</ele>
        <time>2015-03-08T09:10:25Z</time>
      </trkpt>
      <trkpt lat="49.20197" lon="2.02103">
        <ele>107</ele>
        <time>2015-03-08T09:10:33Z</time>
      </trkpt>
      <trkpt lat="49.20199" lon="2.02052">
        <ele>106</ele>
        <time>2015-03-08T09:10:41Z</time>
      </trkpt>
      <trkpt lat="49.202" lon="2.01855">
        <ele>103.40002441406</ele>
        <time>2015-03-08T09:11:10Z</time>
      </trkpt>
      <trkpt lat="49.202" lon="2.01818">
        <ele>102.40002441406</ele>
        <time>2015-03-08T09:11:15Z</time>
      </trkpt>
      <trkpt lat="49.20193" lon="2.01796">
        <ele>101.59997558594</ele>
        <time>2015-03-08T09:11:22Z</time>
      </trkpt>
      <trkpt lat="49.20158" lon="2.01829">
        <ele>103</ele>
        <time>2015-03-08T09:11:34Z</time>
      </trkpt>
      <trkpt lat="49.20122" lon="2.01861">
        <ele>106</ele>
        <time>2015-03-08T09:11:45Z</time>
      </trkpt>
      <trkpt lat="49.20091" lon="2.01887">
        <ele>109.20001220703</ele>
        <time>2015-03-08T09:11:55Z</time>
      </trkpt>
      <trkpt lat="49.20079" lon="2.01896">
        <ele>109.20001220703</ele>
        <time>2015-03-08T09:11:59Z</time>
      </trkpt>
      <trkpt lat="49.20057" lon="2.01915">
        <ele>111.79998779297</ele>
        <time>2015-03-08T09:12:07Z</time>
      </trkpt>
      <trkpt lat="49.20016" lon="2.0194">
        <ele>115.20001220703</ele>
        <time>2015-03-08T09:12:20Z</time>
      </trkpt>
      <trkpt lat="49.20012" lon="2.01941">
        <ele>115.40002441406</ele>
        <time>2015-03-08T09:12:21Z</time>
      </trkpt>
      <trkpt lat="49.19971" lon="2.01972">
        <ele>117.59997558594</ele>
        <time>2015-03-08T09:12:35Z</time>
      </trkpt>
      <trkpt lat="49.19946" lon="2.02006">
        <ele>120.20001220703</ele>
        <time>2015-03-08T09:12:47Z</time>
      </trkpt>
      <trkpt lat="49.19925" lon="2.02031">
        <ele>122.20001220703</ele>
        <time>2015-03-08T09:12:56Z</time>
      </trkpt>
      <trkpt lat="49.19887" lon="2.02064">
        <ele>124.20001220703</ele>
        <time>2015-03-08T09:13:09Z</time>
      </trkpt>
      <trkpt lat="49.19849" lon="2.02096">
        <ele>124</ele>
        <time>2015-03-08T09:13:21Z</time>
      </trkpt>
      <trkpt lat="49.19828" lon="2.02097">
        <ele>124.40002441406</ele>
        <time>2015-03-08T09:13:26Z</time>
      </trkpt>
      <trkpt lat="49.1979" lon="2.02095">
        <ele>124.79998779297</ele>
        <time>2015-03-08T09:13:39Z</time>
      </trkpt>
      <trkpt lat="49.19765" lon="2.02122">
        <ele>125.59997558594</ele>
        <time>2015-03-08T09:13:49Z</time>
      </trkpt>
      <trkpt lat="49.19716" lon="2.02151">
        <ele>127.40002441406</ele>
        <time>2015-03-08T09:14:08Z</time>
      </trkpt>
      <trkpt lat="49.1971" lon="2.0215">
        <ele>127.59997558594</ele>
        <time>2015-03-08T09:14:10Z</time>
      </trkpt>
      <trkpt lat="49.19686" lon="2.02139">
        <ele>128.20001220703</ele>
        <time>2015-03-08T09:14:18Z</time>
      </trkpt>
      <trkpt lat="49.19682" lon="2.02119">
        <ele>128.79998779297</ele>
        <time>2015-03-08T09:14:22Z</time>
      </trkpt>
      <trkpt lat="49.19677" lon="2.02098">
        <ele>129.79998779297</ele>
        <time>2015-03-08T09:14:27Z</time>
      </trkpt>
      <trkpt lat="49.19667" lon="2.02088">
        <ele>130.79998779297</ele>
        <time>2015-03-08T09:14:35Z</time>
      </trkpt>
      <trkpt lat="49.19659" lon="2.02085">
        <ele>131.20001220703</ele>
        <time>2015-03-08T09:14:47Z</time>
      </trkpt>
      <trkpt lat="49.19659" lon="2.02085">
        <ele>131.79998779297</ele>
        <time>2015-03-08T09:16:02Z</time>
      </trkpt>
      <trkpt lat="49.19659" lon="2.02085">
        <ele>132</ele>
        <time>2015-03-08T09:19:11Z</time>
      </trkpt>
      <trkpt lat="49.19639" lon="2.02083">
        <ele>132.59997558594</ele>
        <time>2015-03-08T09:20:09Z</time>
      </trkpt>
      <trkpt lat="49.19595" lon="2.02083">
        <ele>133.79998779297</ele>
        <time>2015-03-08T09:20:26Z</time>
      </trkpt>
      <trkpt lat="49.19587" lon="2.02082">
        <ele>133.79998779297</ele>
        <time>2015-03-08T09:20:29Z</time>
      </trkpt>
      <trkpt lat="49.19588" lon="2.02049">
        <ele>134</ele>
        <time>2015-03-08T09:20:38Z</time>
      </trkpt>
      <trkpt lat="49.19593" lon="2.02005">
        <ele>131.59997558594</ele>
        <time>2015-03-08T09:20:52Z</time>
      </trkpt>
      <trkpt lat="49.19592" lon="2.02003">
        <ele>131.40002441406</ele>
        <time>2015-03-08T09:20:54Z</time>
      </trkpt>
      <trkpt lat="49.19597" lon="2.01986">
        <ele>130.79998779297</ele>
        <time>2015-03-08T09:21:03Z</time>
      </trkpt>
      <trkpt lat="49.19598" lon="2.0198">
        <ele>131</ele>
        <time>2015-03-08T09:21:15Z</time>
      </trkpt>
      <trkpt lat="49.19601" lon="2.0196">
        <ele>131</ele>
        <time>2015-03-08T09:21:22Z</time>
      </trkpt>
      <trkpt lat="49.19603" lon="2.01937">
        <ele>131.20001220703</ele>
        <time>2015-03-08T09:21:32Z</time>
      </trkpt>
      <trkpt lat="49.19605" lon="2.01908">
        <ele>132.40002441406</ele>
        <time>2015-03-08T09:21:48Z</time>
      </trkpt>
      <trkpt lat="49.19605" lon="2.01864">
        <ele>133.59997558594</ele>
        <time>2015-03-08T09:22:02Z</time>
      </trkpt>
      <trkpt lat="49.19608" lon="2.01847">
        <ele>134.79998779297</ele>
        <time>2015-03-08T09:22:09Z</time>
      </trkpt>
      <trkpt lat="49.19614" lon="2.01793">
        <ele>136.79998779297</ele>
        <time>2015-03-08T09:22:30Z</time>
      </trkpt>
      <trkpt lat="49.19614" lon="2.01789">
        <ele>137</ele>
        <time>2015-03-08T09:22:32Z</time>
      </trkpt>
      <trkpt lat="49.19613" lon="2.01779">
        <ele>137.20001220703</ele>
        <time>2015-03-08T09:22:38Z</time>
      </trkpt>
      <trkpt lat="49.19603" lon="2.01776">
        <ele>137.40002441406</ele>
        <time>2015-03-08T09:22:43Z</time>
      </trkpt>
      <trkpt lat="49.1958" lon="2.01769">
        <ele>139</ele>
        <time>2015-03-08T09:23:02Z</time>
      </trkpt>
      <trkpt lat="49.19575" lon="2.01766">
        <ele>140</ele>
        <time>2015-03-08T09:23:07Z</time>
      </trkpt>
      <trkpt lat="49.19576" lon="2.01764">
        <ele>140</ele>
        <time>2015-03-08T09:23:08Z</time>
      </trkpt>
      <trkpt lat="49.19576" lon="2.01763">
        <ele>140.20001220703</ele>
        <time>2015-03-08T09:23:09Z</time>
      </trkpt>
      <trkpt lat="49.19575" lon="2.01747">
        <ele>140.79998779297</ele>
        <time>2015-03-08T09:23:21Z</time>
      </trkpt>
      <trkpt lat="49.19572" lon="2.01716">
        <ele>141.20001220703</ele>
        <time>2015-03-08T09:23:39Z</time>
      </trkpt>
      <trkpt lat="49.19572" lon="2.01714">
        <ele>141.40002441406</ele>
        <time>2015-03-08T09:23:50Z</time>
      </trkpt>
      <trkpt lat="49.19568" lon="2.01692">
        <ele>141.59997558594</ele>
        <time>2015-03-08T09:23:56Z</time>
      </trkpt>
      <trkpt lat="49.1956" lon="2.01618">
        <ele>139.59997558594</ele>
        <time>2015-03-08T09:24:11Z</time>
      </trkpt>
      <trkpt lat="49.1956" lon="2.01611">
        <ele>139</ele>
        <time>2015-03-08T09:24:13Z</time>
      </trkpt>
      <trkpt lat="49.19549" lon="2.01588">
        <ele>138</ele>
        <time>2015-03-08T09:24:22Z</time>
      </trkpt>
      <trkpt lat="49.19547" lon="2.01582">
        <ele>137.59997558594</ele>
        <time>2015-03-08T09:24:24Z</time>
      </trkpt>
      <trkpt lat="49.19551" lon="2.01566">
        <ele>137.40002441406</ele>
        <time>2015-03-08T09:24:31Z</time>
      </trkpt>
      <trkpt lat="49.19546" lon="2.01529">
        <ele>138</ele>
        <time>2015-03-08T09:24:44Z</time>
      </trkpt>
      <trkpt lat="49.19539" lon="2.01491">
        <ele>138.79998779297</ele>
        <time>2015-03-08T09:24:58Z</time>
      </trkpt>
      <trkpt lat="49.19529" lon="2.01456">
        <ele>141.20001220703</ele>
        <time>2015-03-08T09:25:12Z</time>
      </trkpt>
      <trkpt lat="49.19519" lon="2.01438">
        <ele>143</ele>
        <time>2015-03-08T09:25:20Z</time>
      </trkpt>
      <trkpt lat="49.19515" lon="2.01419">
        <ele>144.40002441406</ele>
        <time>2015-03-08T09:25:30Z</time>
      </trkpt>
      <trkpt lat="49.19513" lon="2.01401">
        <ele>145.79998779297</ele>
        <time>2015-03-08T09:25:39Z</time>
      </trkpt>
      <trkpt lat="49.19517" lon="2.01388">
        <ele>147.40002441406</ele>
        <time>2015-03-08T09:25:46Z</time>
      </trkpt>
      <trkpt lat="49.19517" lon="2.01387">
        <ele>147.59997558594</ele>
        <time>2015-03-08T09:25:47Z</time>
      </trkpt>
      <trkpt lat="49.19517" lon="2.01365">
        <ele>151</ele>
        <time>2015-03-08T09:25:56Z</time>
      </trkpt>
      <trkpt lat="49.19518" lon="2.01349">
        <ele>153</ele>
        <time>2015-03-08T09:26:03Z</time>
      </trkpt>
      <trkpt lat="49.19518" lon="2.01323">
        <ele>155.79998779297</ele>
        <time>2015-03-08T09:26:15Z</time>
      </trkpt>
      <trkpt lat="49.19513" lon="2.01284">
        <ele>158.20001220703</ele>
        <time>2015-03-08T09:26:34Z</time>
      </trkpt>
      <trkpt lat="49.1951" lon="2.01258">
        <ele>159.79998779297</ele>
        <time>2015-03-08T09:26:46Z</time>
      </trkpt>
      <trkpt lat="49.1951" lon="2.01256">
        <ele>160</ele>
        <time>2015-03-08T09:26:47Z</time>
      </trkpt>
      <trkpt lat="49.19508" lon="2.01251">
        <ele>160.40002441406</ele>
        <time>2015-03-08T09:26:58Z</time>
      </trkpt>
      <trkpt lat="49.19506" lon="2.01247">
        <ele>160.79998779297</ele>
        <time>2015-03-08T09:27:14Z</time>
      </trkpt>
      <trkpt lat="49.19506" lon="2.01247">
        <ele>156</ele>
        <time>2015-03-08T09:28:09Z</time>
      </trkpt>
      <trkpt lat="49.19506" lon="2.01247">
        <ele>157.20001220703</ele>
        <time>2015-03-08T09:28:10Z</time>
      </trkpt>
      <trkpt lat="49.19506" lon="2.01247">
        <ele>160.59997558594</ele>
        <time>2015-03-08T09:28:12Z</time>
      </trkpt>
      <trkpt lat="49.19506" lon="2.01247">
        <ele>160.40002441406</ele>
        <time>2015-03-08T09:28:13Z</time>
      </trkpt>
      <trkpt lat="49.19506" lon="2.01246">
        <ele>160.20001220703</ele>
        <time>2015-03-08T09:28:30Z</time>
      </trkpt>
      <trkpt lat="49.19504" lon="2.01218">
        <ele>160.79998779297</ele>
        <time>2015-03-08T09:28:35Z</time>
      </trkpt>
      <trkpt lat="49.19506" lon="2.01209">
        <ele>164.79998779297</ele>
        <time>2015-03-08T09:28:39Z</time>
      </trkpt>
      <trkpt lat="49.19505" lon="2.01205">
        <ele>157.59997558594</ele>
        <time>2015-03-08T09:28:40Z</time>
      </trkpt>
      <trkpt lat="49.19505" lon="2.01203">
        <ele>153.59997558594</ele>
        <time>2015-03-08T09:28:41Z</time>
      </trkpt>
      <trkpt lat="49.19506" lon="2.01202">
        <ele>154.20001220703</ele>
        <time>2015-03-08T09:28:42Z</time>
      </trkpt>
      <trkpt lat="49.19506" lon="2.01201">
        <ele>164.20001220703</ele>
        <time>2015-03-08T09:28:43Z</time>
      </trkpt>
      <trkpt lat="49.19505" lon="2.01199">
        <ele>167.79998779297</ele>
        <time>2015-03-08T09:28:44Z</time>
      </trkpt>
      <trkpt lat="49.19505" lon="2.01198">
        <ele>166.20001220703</ele>
        <time>2015-03-08T09:28:45Z</time>
      </trkpt>
      <trkpt lat="49.19505" lon="2.01194">
        <ele>162.20001220703</ele>
        <time>2015-03-08T09:28:47Z</time>
      </trkpt>
      <trkpt lat="49.1951" lon="2.01177">
        <ele>165.40002441406</ele>
        <time>2015-03-08T09:28:55Z</time>
      </trkpt>
      <trkpt lat="49.19508" lon="2.01159">
        <ele>166.59997558594</ele>
        <time>2015-03-08T09:29:01Z</time>
      </trkpt>
      <trkpt lat="49.19506" lon="2.01124">
        <ele>167</ele>
        <time>2015-03-08T09:29:08Z</time>
      </trkpt>
      <trkpt lat="49.19503" lon="2.01078">
        <ele>167</ele>
        <time>2015-03-08T09:29:19Z</time>
      </trkpt>
      <trkpt lat="49.19512" lon="2.0108">
        <ele>166.20001220703</ele>
        <time>2015-03-08T09:29:24Z</time>
      </trkpt>
      <trkpt lat="49.19526" lon="2.01091">
        <ele>164</ele>
        <time>2015-03-08T09:29:29Z</time>
      </trkpt>
      <trkpt lat="49.19548" lon="2.01122">
        <ele>160</ele>
        <time>2015-03-08T09:29:35Z</time>
      </trkpt>
      <trkpt lat="49.19563" lon="2.01143">
        <ele>156.79998779297</ele>
        <time>2015-03-08T09:29:38Z</time>
      </trkpt>
      <trkpt lat="49.19588" lon="2.01176">
        <ele>153</ele>
        <time>2015-03-08T09:29:43Z</time>
      </trkpt>
      <trkpt lat="49.19617" lon="2.01182">
        <ele>149.59997558594</ele>
        <time>2015-03-08T09:29:48Z</time>
      </trkpt>
      <trkpt lat="49.19634" lon="2.01182">
        <ele>146.59997558594</ele>
        <time>2015-03-08T09:29:51Z</time>
      </trkpt>
      <trkpt lat="49.19653" lon="2.01181">
        <ele>143</ele>
        <time>2015-03-08T09:29:55Z</time>
      </trkpt>
      <trkpt lat="49.19673" lon="2.01187">
        <ele>141.20001220703</ele>
        <time>2015-03-08T09:29:59Z</time>
      </trkpt>
      <trkpt lat="49.19686" lon="2.01196">
        <ele>140</ele>
        <time>2015-03-08T09:30:02Z</time>
      </trkpt>
      <trkpt lat="49.19707" lon="2.01213">
        <ele>137.20001220703</ele>
        <time>2015-03-08T09:30:08Z</time>
      </trkpt>
      <trkpt lat="49.19718" lon="2.01218">
        <ele>136.20001220703</ele>
        <time>2015-03-08T09:30:11Z</time>
      </trkpt>
      <trkpt lat="49.19727" lon="2.01201">
        <ele>135.40002441406</ele>
        <time>2015-03-08T09:30:19Z</time>
      </trkpt>
      <trkpt lat="49.19731" lon="2.01185">
        <ele>135.40002441406</ele>
        <time>2015-03-08T09:30:35Z</time>
      </trkpt>
      <trkpt lat="49.19739" lon="2.01149">
        <ele>134.79998779297</ele>
        <time>2015-03-08T09:30:42Z</time>
      </trkpt>
      <trkpt lat="49.19754" lon="2.01083">
        <ele>133.20001220703</ele>
        <time>2015-03-08T09:30:51Z</time>
      </trkpt>
      <trkpt lat="49.1976" lon="2.0106">
        <ele>132</ele>
        <time>2015-03-08T09:30:54Z</time>
      </trkpt>
      <trkpt lat="49.19762" lon="2.01039">
        <ele>128.79998779297</ele>
        <time>2015-03-08T09:30:57Z</time>
      </trkpt>
      <trkpt lat="49.1976" lon="2.01004">
        <ele>125.20001220703</ele>
        <time>2015-03-08T09:31:04Z</time>
      </trkpt>
      <trkpt lat="49.1978" lon="2.00976">
        <ele>124.59997558594</ele>
        <time>2015-03-08T09:31:12Z</time>
      </trkpt>
      <trkpt lat="49.19815" lon="2.00937">
        <ele>125.40002441406</ele>
        <time>2015-03-08T09:31:23Z</time>
      </trkpt>
      <trkpt lat="49.19831" lon="2.00948">
        <ele>124.20001220703</ele>
        <time>2015-03-08T09:31:30Z</time>
      </trkpt>
      <trkpt lat="49.19833" lon="2.00952">
        <ele>123.59997558594</ele>
        <time>2015-03-08T09:31:31Z</time>
      </trkpt>
      <trkpt lat="49.19846" lon="2.00985">
        <ele>119.59997558594</ele>
        <time>2015-03-08T09:31:36Z</time>
      </trkpt>
      <trkpt lat="49.19858" lon="2.01016">
        <ele>117</ele>
        <time>2015-03-08T09:31:40Z</time>
      </trkpt>
      <trkpt lat="49.19877" lon="2.01054">
        <ele>113.59997558594</ele>
        <time>2015-03-08T09:31:45Z</time>
      </trkpt>
      <trkpt lat="49.19887" lon="2.01067">
        <ele>112.59997558594</ele>
        <time>2015-03-08T09:31:47Z</time>
      </trkpt>
      <trkpt lat="49.19907" lon="2.01092">
        <ele>111.20001220703</ele>
        <time>2015-03-08T09:31:51Z</time>
      </trkpt>
      <trkpt lat="49.19911" lon="2.01099">
        <ele>111</ele>
        <time>2015-03-08T09:31:52Z</time>
      </trkpt>
      <trkpt lat="49.19915" lon="2.01105">
        <ele>110.79998779297</ele>
        <time>2015-03-08T09:31:53Z</time>
      </trkpt>
      <trkpt lat="49.19936" lon="2.01141">
        <ele>108.79998779297</ele>
        <time>2015-03-08T09:31:59Z</time>
      </trkpt>
      <trkpt lat="49.19987" lon="2.01199">
        <ele>106.20001220703</ele>
        <time>2015-03-08T09:32:10Z</time>
      </trkpt>
      <trkpt lat="49.20007" lon="2.01181">
        <ele>106</ele>
        <time>2015-03-08T09:32:18Z</time>
      </trkpt>
      <trkpt lat="49.20011" lon="2.01163">
        <ele>106.79998779297</ele>
        <time>2015-03-08T09:32:22Z</time>
      </trkpt>
      <trkpt lat="49.20024" lon="2.01122">
        <ele>110.59997558594</ele>
        <time>2015-03-08T09:32:31Z</time>
      </trkpt>
      <trkpt lat="49.20039" lon="2.01078">
        <ele>114.20001220703</ele>
        <time>2015-03-08T09:32:41Z</time>
      </trkpt>
      <trkpt lat="49.20051" lon="2.01041">
        <ele>117.40002441406</ele>
        <time>2015-03-08T09:32:50Z</time>
      </trkpt>
      <trkpt lat="49.20058" lon="2.01004">
        <ele>120.40002441406</ele>
        <time>2015-03-08T09:32:58Z</time>
      </trkpt>
      <trkpt lat="49.20066" lon="2.00954">
        <ele>123.20001220703</ele>
        <time>2015-03-08T09:33:10Z</time>
      </trkpt>
      <trkpt lat="49.20054" lon="2.00936">
        <ele>124.20001220703</ele>
        <time>2015-03-08T09:33:16Z</time>
      </trkpt>
      <trkpt lat="49.20039" lon="2.00919">
        <ele>124.40002441406</ele>
        <time>2015-03-08T09:33:22Z</time>
      </trkpt>
      <trkpt lat="49.19985" lon="2.00862">
        <ele>126.79998779297</ele>
        <time>2015-03-08T09:33:44Z</time>
      </trkpt>
      <trkpt lat="49.19942" lon="2.00822">
        <ele>130.40002441406</ele>
        <time>2015-03-08T09:34:03Z</time>
      </trkpt>
      <trkpt lat="49.1993" lon="2.00813">
        <ele>132.20001220703</ele>
        <time>2015-03-08T09:34:08Z</time>
      </trkpt>
      <trkpt lat="49.19904" lon="2.0078">
        <ele>135.40002441406</ele>
        <time>2015-03-08T09:34:22Z</time>
      </trkpt>
      <trkpt lat="49.1988" lon="2.00747">
        <ele>138.79998779297</ele>
        <time>2015-03-08T09:34:37Z</time>
      </trkpt>
      <trkpt lat="49.19853" lon="2.00716">
        <ele>141</ele>
        <time>2015-03-08T09:34:52Z</time>
      </trkpt>
      <trkpt lat="49.19814" lon="2.00709">
        <ele>141.79998779297</ele>
        <time>2015-03-08T09:35:08Z</time>
      </trkpt>
      <trkpt lat="49.19776" lon="2.00712">
        <ele>142.79998779297</ele>
        <time>2015-03-08T09:35:22Z</time>
      </trkpt>
      <trkpt lat="49.19749" lon="2.00702">
        <ele>143.79998779297</ele>
        <time>2015-03-08T09:35:34Z</time>
      </trkpt>
      <trkpt lat="49.1972" lon="2.00684">
        <ele>146</ele>
        <time>2015-03-08T09:35:47Z</time>
      </trkpt>
      <trkpt lat="49.19693" lon="2.00654">
        <ele>148.40002441406</ele>
        <time>2015-03-08T09:36:01Z</time>
      </trkpt>
      <trkpt lat="49.19681" lon="2.00639">
        <ele>150</ele>
        <time>2015-03-08T09:36:09Z</time>
      </trkpt>
      <trkpt lat="49.19677" lon="2.0063">
        <ele>151</ele>
        <time>2015-03-08T09:36:13Z</time>
      </trkpt>
      <trkpt lat="49.19662" lon="2.00605">
        <ele>154.40002441406</ele>
        <time>2015-03-08T09:36:25Z</time>
      </trkpt>
      <trkpt lat="49.19655" lon="2.00597">
        <ele>155.79998779297</ele>
        <time>2015-03-08T09:36:31Z</time>
      </trkpt>
      <trkpt lat="49.19646" lon="2.00585">
        <ele>157.79998779297</ele>
        <time>2015-03-08T09:36:41Z</time>
      </trkpt>
      <trkpt lat="49.19633" lon="2.00573">
        <ele>159.79998779297</ele>
        <time>2015-03-08T09:36:53Z</time>
      </trkpt>
      <trkpt lat="49.19618" lon="2.00558">
        <ele>162.40002441406</ele>
        <time>2015-03-08T09:37:05Z</time>
      </trkpt>
      <trkpt lat="49.19609" lon="2.00551">
        <ele>164.40002441406</ele>
        <time>2015-03-08T09:37:12Z</time>
      </trkpt>
      <trkpt lat="49.19594" lon="2.0054">
        <ele>168</ele>
        <time>2015-03-08T09:37:25Z</time>
      </trkpt>
      <trkpt lat="49.19578" lon="2.00533">
        <ele>170.40002441406</ele>
        <time>2015-03-08T09:37:36Z</time>
      </trkpt>
      <trkpt lat="49.19564" lon="2.00523">
        <ele>171.79998779297</ele>
        <time>2015-03-08T09:37:50Z</time>
      </trkpt>
      <trkpt lat="49.19544" lon="2.00515">
        <ele>173.59997558594</ele>
        <time>2015-03-08T09:38:05Z</time>
      </trkpt>
      <trkpt lat="49.19526" lon="2.00506">
        <ele>174.59997558594</ele>
        <time>2015-03-08T09:38:20Z</time>
      </trkpt>
      <trkpt lat="49.19518" lon="2.00493">
        <ele>175</ele>
        <time>2015-03-08T09:38:33Z</time>
      </trkpt>
      <trkpt lat="49.19508" lon="2.00462">
        <ele>175</ele>
        <time>2015-03-08T09:38:49Z</time>
      </trkpt>
      <trkpt lat="49.195" lon="2.00435">
        <ele>174.59997558594</ele>
        <time>2015-03-08T09:38:54Z</time>
      </trkpt>
      <trkpt lat="49.19494" lon="2.00399">
        <ele>173.40002441406</ele>
        <time>2015-03-08T09:38:59Z</time>
      </trkpt>
      <trkpt lat="49.19473" lon="2.00324">
        <ele>174.79998779297</ele>
        <time>2015-03-08T09:39:13Z</time>
      </trkpt>
      <trkpt lat="49.1947" lon="2.00319">
        <ele>175</ele>
        <time>2015-03-08T09:39:14Z</time>
      </trkpt>
      <trkpt lat="49.19413" lon="2.00237">
        <ele>174</ele>
        <time>2015-03-08T09:39:32Z</time>
      </trkpt>
      <trkpt lat="49.19379" lon="2.00184">
        <ele>171.20001220703</ele>
        <time>2015-03-08T09:39:40Z</time>
      </trkpt>
      <trkpt lat="49.19347" lon="2.0015">
        <ele>169.20001220703</ele>
        <time>2015-03-08T09:39:47Z</time>
      </trkpt>
      <trkpt lat="49.19333" lon="2.00136">
        <ele>167.40002441406</ele>
        <time>2015-03-08T09:39:50Z</time>
      </trkpt>
      <trkpt lat="49.19311" lon="2.00098">
        <ele>163.40002441406</ele>
        <time>2015-03-08T09:39:56Z</time>
      </trkpt>
      <trkpt lat="49.19304" lon="2.00081">
        <ele>160.79998779297</ele>
        <time>2015-03-08T09:40:10Z</time>
      </trkpt>
      <trkpt lat="49.19304" lon="2.00081">
        <ele>162.40002441406</ele>
        <time>2015-03-08T09:40:27Z</time>
      </trkpt>
      <trkpt lat="49.19304" lon="2.00078">
        <ele>161.20001220703</ele>
        <time>2015-03-08T09:40:52Z</time>
      </trkpt>
      <trkpt lat="49.19308" lon="2.0005">
        <ele>158.79998779297</ele>
        <time>2015-03-08T09:40:56Z</time>
      </trkpt>
      <trkpt lat="49.19314" lon="2.00016">
        <ele>155.59997558594</ele>
        <time>2015-03-08T09:41:00Z</time>
      </trkpt>
      <trkpt lat="49.19315" lon="2.00009">
        <ele>154.79998779297</ele>
        <time>2015-03-08T09:41:01Z</time>
      </trkpt>
      <trkpt lat="49.19316" lon="2.00001">
        <ele>154.20001220703</ele>
        <time>2015-03-08T09:41:02Z</time>
      </trkpt>
      <trkpt lat="49.19319" lon="1.99968">
        <ele>151.59997558594</ele>
        <time>2015-03-08T09:41:06Z</time>
      </trkpt>
      <trkpt lat="49.19328" lon="1.99936">
        <ele>149.40002441406</ele>
        <time>2015-03-08T09:41:10Z</time>
      </trkpt>
      <trkpt lat="49.19339" lon="1.99915">
        <ele>148.20001220703</ele>
        <time>2015-03-08T09:41:13Z</time>
      </trkpt>
      <trkpt lat="49.19368" lon="1.99869">
        <ele>144.79998779297</ele>
        <time>2015-03-08T09:41:20Z</time>
      </trkpt>
      <trkpt lat="49.19373" lon="1.99852">
        <ele>143.20001220703</ele>
        <time>2015-03-08T09:41:25Z</time>
      </trkpt>
      <trkpt lat="49.19366" lon="1.99817">
        <ele>140.59997558594</ele>
        <time>2015-03-08T09:41:41Z</time>
      </trkpt>
      <trkpt lat="49.19366" lon="1.99817">
        <ele>141.20001220703</ele>
        <time>2015-03-08T09:41:59Z</time>
      </trkpt>
      <trkpt lat="49.1936" lon="1.99789">
        <ele>140</ele>
        <time>2015-03-08T09:42:04Z</time>
      </trkpt>
      <trkpt lat="49.19351" lon="1.9975">
        <ele>137</ele>
        <time>2015-03-08T09:42:12Z</time>
      </trkpt>
      <trkpt lat="49.19348" lon="1.99734">
        <ele>135.79998779297</ele>
        <time>2015-03-08T09:42:17Z</time>
      </trkpt>
      <trkpt lat="49.19351" lon="1.99708">
        <ele>135</ele>
        <time>2015-03-08T09:42:22Z</time>
      </trkpt>
      <trkpt lat="49.19354" lon="1.99683">
        <ele>133.79998779297</ele>
        <time>2015-03-08T09:42:25Z</time>
      </trkpt>
      <trkpt lat="49.19353" lon="1.99643">
        <ele>131.40002441406</ele>
        <time>2015-03-08T09:42:31Z</time>
      </trkpt>
      <trkpt lat="49.19352" lon="1.99631">
        <ele>130.40002441406</ele>
        <time>2015-03-08T09:42:33Z</time>
      </trkpt>
      <trkpt lat="49.19365" lon="1.99591">
        <ele>128</ele>
        <time>2015-03-08T09:42:39Z</time>
      </trkpt>
      <trkpt lat="49.19379" lon="1.99555">
        <ele>125.79998779297</ele>
        <time>2015-03-08T09:42:44Z</time>
      </trkpt>
      <trkpt lat="49.19381" lon="1.99547">
        <ele>125.59997558594</ele>
        <time>2015-03-08T09:42:45Z</time>
      </trkpt>
      <trkpt lat="49.19388" lon="1.99515">
        <ele>124.40002441406</ele>
        <time>2015-03-08T09:42:49Z</time>
      </trkpt>
      <trkpt lat="49.1939" lon="1.99509">
        <ele>124.20001220703</ele>
        <time>2015-03-08T09:42:50Z</time>
      </trkpt>
      <trkpt lat="49.19396" lon="1.99478">
        <ele>122.79998779297</ele>
        <time>2015-03-08T09:42:57Z</time>
      </trkpt>
      <trkpt lat="49.19401" lon="1.99425">
        <ele>121.59997558594</ele>
        <time>2015-03-08T09:43:04Z</time>
      </trkpt>
      <trkpt lat="49.19396" lon="1.99365">
        <ele>120.59997558594</ele>
        <time>2015-03-08T09:43:11Z</time>
      </trkpt>
      <trkpt lat="49.19379" lon="1.99275">
        <ele>118.40002441406</ele>
        <time>2015-03-08T09:43:21Z</time>
      </trkpt>
      <trkpt lat="49.19363" lon="1.99204">
        <ele>115.79998779297</ele>
        <time>2015-03-08T09:43:28Z</time>
      </trkpt>
      <trkpt lat="49.19355" lon="1.99173">
        <ele>114.59997558594</ele>
        <time>2015-03-08T09:43:32Z</time>
      </trkpt>
      <trkpt lat="49.19353" lon="1.99159">
        <ele>114</ele>
        <time>2015-03-08T09:43:44Z</time>
      </trkpt>
      <trkpt lat="49.19349" lon="1.99148">
        <ele>114</ele>
        <time>2015-03-08T09:43:58Z</time>
      </trkpt>
      <trkpt lat="49.19342" lon="1.9913">
        <ele>113.59997558594</ele>
        <time>2015-03-08T09:44:08Z</time>
      </trkpt>
      <trkpt lat="49.19339" lon="1.99128">
        <ele>113.59997558594</ele>
        <time>2015-03-08T09:44:18Z</time>
      </trkpt>
      <trkpt lat="49.19339" lon="1.99125">
        <ele>113.20001220703</ele>
        <time>2015-03-08T09:44:32Z</time>
      </trkpt>
      <trkpt lat="49.19339" lon="1.99123">
        <ele>111.59997558594</ele>
        <time>2015-03-08T09:46:45Z</time>
      </trkpt>
      <trkpt lat="49.19337" lon="1.99123">
        <ele>111.59997558594</ele>
        <time>2015-03-08T09:47:34Z</time>
      </trkpt>
      <trkpt lat="49.19334" lon="1.99123">
        <ele>112.40002441406</ele>
        <time>2015-03-08T09:49:39Z</time>
      </trkpt>
      <trkpt lat="49.19331" lon="1.99123">
        <ele>112.40002441406</ele>
        <time>2015-03-08T09:49:40Z</time>
      </trkpt>
      <trkpt lat="49.19299" lon="1.99121">
        <ele>111.59997558594</ele>
        <time>2015-03-08T09:49:49Z</time>
      </trkpt>
      <trkpt lat="49.19265" lon="1.9912">
        <ele>108.40002441406</ele>
        <time>2015-03-08T09:49:55Z</time>
      </trkpt>
      <trkpt lat="49.19232" lon="1.99115">
        <ele>105.40002441406</ele>
        <time>2015-03-08T09:50:00Z</time>
      </trkpt>
      <trkpt lat="49.19181" lon="1.99092">
        <ele>101.79998779297</ele>
        <time>2015-03-08T09:50:07Z</time>
      </trkpt>
      <trkpt lat="49.19135" lon="1.99063">
        <ele>101.20001220703</ele>
        <time>2015-03-08T09:50:14Z</time>
      </trkpt>
      <trkpt lat="49.19115" lon="1.99038">
        <ele>102.20001220703</ele>
        <time>2015-03-08T09:50:19Z</time>
      </trkpt>
      <trkpt lat="49.19094" lon="1.99014">
        <ele>104</ele>
        <time>2015-03-08T09:50:26Z</time>
      </trkpt>
      <trkpt lat="49.19077" lon="1.99007">
        <ele>104.20001220703</ele>
        <time>2015-03-08T09:50:30Z</time>
      </trkpt>
      <trkpt lat="49.19037" lon="1.99019">
        <ele>104.59997558594</ele>
        <time>2015-03-08T09:50:39Z</time>
      </trkpt>
      <trkpt lat="49.19015" lon="1.99034">
        <ele>104.59997558594</ele>
        <time>2015-03-08T09:50:45Z</time>
      </trkpt>
      <trkpt lat="49.18997" lon="1.99046">
        <ele>104.40002441406</ele>
        <time>2015-03-08T09:50:50Z</time>
      </trkpt>
      <trkpt lat="49.18969" lon="1.99074">
        <ele>105.79998779297</ele>
        <time>2015-03-08T09:50:59Z</time>
      </trkpt>
      <trkpt lat="49.18945" lon="1.99102">
        <ele>104.59997558594</ele>
        <time>2015-03-08T09:51:06Z</time>
      </trkpt>
      <trkpt lat="49.18929" lon="1.99123">
        <ele>104.59997558594</ele>
        <time>2015-03-08T09:51:10Z</time>
      </trkpt>
      <trkpt lat="49.18909" lon="1.99177">
        <ele>105</ele>
        <time>2015-03-08T09:51:19Z</time>
      </trkpt>
      <trkpt lat="49.18897" lon="1.99228">
        <ele>106</ele>
        <time>2015-03-08T09:51:35Z</time>
      </trkpt>
      <trkpt lat="49.18883" lon="1.99261">
        <ele>106.40002441406</ele>
        <time>2015-03-08T09:51:47Z</time>
      </trkpt>
      <trkpt lat="49.18856" lon="1.99304">
        <ele>101.79998779297</ele>
        <time>2015-03-08T09:51:56Z</time>
      </trkpt>
      <trkpt lat="49.18847" lon="1.99321">
        <ele>106.20001220703</ele>
        <time>2015-03-08T09:52:00Z</time>
      </trkpt>
      <trkpt lat="49.18837" lon="1.99344">
        <ele>107.40002441406</ele>
        <time>2015-03-08T09:52:04Z</time>
      </trkpt>
      <trkpt lat="49.18817" lon="1.99368">
        <ele>108.40002441406</ele>
        <time>2015-03-08T09:52:10Z</time>
      </trkpt>
      <trkpt lat="49.18803" lon="1.9938">
        <ele>109.20001220703</ele>
        <time>2015-03-08T09:52:14Z</time>
      </trkpt>
      <trkpt lat="49.18773" lon="1.99382">
        <ele>107.79998779297</ele>
        <time>2015-03-08T09:52:20Z</time>
      </trkpt>
      <trkpt lat="49.18756" lon="1.99383">
        <ele>106.40002441406</ele>
        <time>2015-03-08T09:52:24Z</time>
      </trkpt>
      <trkpt lat="49.18743" lon="1.99408">
        <ele>104.59997558594</ele>
        <time>2015-03-08T09:52:30Z</time>
      </trkpt>
      <trkpt lat="49.18743" lon="1.99424">
        <ele>104</ele>
        <time>2015-03-08T09:52:32Z</time>
      </trkpt>
      <trkpt lat="49.18739" lon="1.99479">
        <ele>101.79998779297</ele>
        <time>2015-03-08T10:06:52Z</time>
      </trkpt>
      <trkpt lat="49.18733" lon="1.99516">
        <ele>101.20001220703</ele>
        <time>2015-03-08T10:06:57Z</time>
      </trkpt>
      <trkpt lat="49.18731" lon="1.99524">
        <ele>101</ele>
        <time>2015-03-08T10:06:58Z</time>
      </trkpt>
      <trkpt lat="49.18701" lon="1.99648">
        <ele>100</ele>
        <time>2015-03-08T10:07:12Z</time>
      </trkpt>
      <trkpt lat="49.18694" lon="1.99694">
        <ele>101.20001220703</ele>
        <time>2015-03-08T10:07:18Z</time>
      </trkpt>
      <trkpt lat="49.18688" lon="1.99735">
        <ele>102.20001220703</ele>
        <time>2015-03-08T10:07:24Z</time>
      </trkpt>
      <trkpt lat="49.18664" lon="1.99809">
        <ele>106</ele>
        <time>2015-03-08T10:07:37Z</time>
      </trkpt>
      <trkpt lat="49.18662" lon="1.99815">
        <ele>106.20001220703</ele>
        <time>2015-03-08T10:07:38Z</time>
      </trkpt>
      <trkpt lat="49.18652" lon="1.99843">
        <ele>107</ele>
        <time>2015-03-08T10:07:42Z</time>
      </trkpt>
      <trkpt lat="49.18645" lon="1.99859">
        <ele>108.20001220703</ele>
        <time>2015-03-08T10:07:45Z</time>
      </trkpt>
      <trkpt lat="49.18641" lon="1.9987">
        <ele>108.40002441406</ele>
        <time>2015-03-08T10:07:47Z</time>
      </trkpt>
      <trkpt lat="49.18633" lon="1.99916">
        <ele>105.40002441406</ele>
        <time>2015-03-08T10:14:20Z</time>
      </trkpt>
      <trkpt lat="49.18636" lon="1.99923">
        <ele>105.79998779297</ele>
        <time>2015-03-08T10:14:25Z</time>
      </trkpt>
      <trkpt lat="49.18646" lon="1.99935">
        <ele>107</ele>
        <time>2015-03-08T10:14:31Z</time>
      </trkpt>
      <trkpt lat="49.18648" lon="1.99938">
        <ele>107.20001220703</ele>
        <time>2015-03-08T10:14:32Z</time>
      </trkpt>
      <trkpt lat="49.18694" lon="1.99977">
        <ele>108.79998779297</ele>
        <time>2015-03-08T10:14:49Z</time>
      </trkpt>
      <trkpt lat="49.18728" lon="1.99999">
        <ele>109</ele>
        <time>2015-03-08T10:15:06Z</time>
      </trkpt>
      <trkpt lat="49.18781" lon="2.00028">
        <ele>110.20001220703</ele>
        <time>2015-03-08T10:15:26Z</time>
      </trkpt>
      <trkpt lat="49.18846" lon="2.00063">
        <ele>113.59997558594</ele>
        <time>2015-03-08T10:15:50Z</time>
      </trkpt>
      <trkpt lat="49.18851" lon="2.00064">
        <ele>113.59997558594</ele>
        <time>2015-03-08T10:15:52Z</time>
      </trkpt>
      <trkpt lat="49.18858" lon="2.00066">
        <ele>114.20001220703</ele>
        <time>2015-03-08T10:15:55Z</time>
      </trkpt>
      <trkpt lat="49.18865" lon="2.00064">
        <ele>114.59997558594</ele>
        <time>2015-03-08T10:15:58Z</time>
      </trkpt>
      <trkpt lat="49.189" lon="2.00065">
        <ele>117.79998779297</ele>
        <time>2015-03-08T10:16:14Z</time>
      </trkpt>
      <trkpt lat="49.18906" lon="2.00064">
        <ele>118</ele>
        <time>2015-03-08T10:16:16Z</time>
      </trkpt>
      <trkpt lat="49.18945" lon="2.00065">
        <ele>120.79998779297</ele>
        <time>2015-03-08T10:16:32Z</time>
      </trkpt>
      <trkpt lat="49.1897" lon="2.00076">
        <ele>122.59997558594</ele>
        <time>2015-03-08T10:16:45Z</time>
      </trkpt>
      <trkpt lat="49.18994" lon="2.00089">
        <ele>126</ele>
        <time>2015-03-08T10:16:57Z</time>
      </trkpt>
      <trkpt lat="49.19018" lon="2.0011">
        <ele>129.59997558594</ele>
        <time>2015-03-08T10:17:11Z</time>
      </trkpt>
      <trkpt lat="49.19029" lon="2.00132">
        <ele>132</ele>
        <time>2015-03-08T10:17:20Z</time>
      </trkpt>
      <trkpt lat="49.19045" lon="2.0015">
        <ele>135</ele>
        <time>2015-03-08T10:17:32Z</time>
      </trkpt>
      <trkpt lat="49.19049" lon="2.00155">
        <ele>135.20001220703</ele>
        <time>2015-03-08T10:17:35Z</time>
      </trkpt>
      <trkpt lat="49.19057" lon="2.00162">
        <ele>136.40002441406</ele>
        <time>2015-03-08T10:17:41Z</time>
      </trkpt>
      <trkpt lat="49.19073" lon="2.00176">
        <ele>137.79998779297</ele>
        <time>2015-03-08T10:17:50Z</time>
      </trkpt>
      <trkpt lat="49.19088" lon="2.00185">
        <ele>138.79998779297</ele>
        <time>2015-03-08T10:17:57Z</time>
      </trkpt>
      <trkpt lat="49.19115" lon="2.00196">
        <ele>141.20001220703</ele>
        <time>2015-03-08T10:18:10Z</time>
      </trkpt>
      <trkpt lat="49.19139" lon="2.00209">
        <ele>144</ele>
        <time>2015-03-08T10:18:22Z</time>
      </trkpt>
      <trkpt lat="49.19171" lon="2.00236">
        <ele>145.79998779297</ele>
        <time>2015-03-08T10:18:37Z</time>
      </trkpt>
      <trkpt lat="49.19204" lon="2.00268">
        <ele>147.40002441406</ele>
        <time>2015-03-08T10:18:53Z</time>
      </trkpt>
      <trkpt lat="49.19238" lon="2.00329">
        <ele>148.40002441406</ele>
        <time>2015-03-08T10:19:09Z</time>
      </trkpt>
      <trkpt lat="49.19259" lon="2.00375">
        <ele>151.79998779297</ele>
        <time>2015-03-08T10:19:23Z</time>
      </trkpt>
      <trkpt lat="49.19262" lon="2.00378">
        <ele>152</ele>
        <time>2015-03-08T10:19:24Z</time>
      </trkpt>
      <trkpt lat="49.19294" lon="2.00416">
        <ele>154.20001220703</ele>
        <time>2015-03-08T10:19:36Z</time>
      </trkpt>
      <trkpt lat="49.19318" lon="2.00436">
        <ele>154.79998779297</ele>
        <time>2015-03-08T10:19:45Z</time>
      </trkpt>
      <trkpt lat="49.19329" lon="2.00449">
        <ele>155.20001220703</ele>
        <time>2015-03-08T10:19:50Z</time>
      </trkpt>
      <trkpt lat="49.19336" lon="2.00467">
        <ele>155.59997558594</ele>
        <time>2015-03-08T10:19:56Z</time>
      </trkpt>
      <trkpt lat="49.19355" lon="2.00509">
        <ele>158.59997558594</ele>
        <time>2015-03-08T10:20:10Z</time>
      </trkpt>
      <trkpt lat="49.19367" lon="2.00541">
        <ele>162</ele>
        <time>2015-03-08T10:20:19Z</time>
      </trkpt>
      <trkpt lat="49.19375" lon="2.00557">
        <ele>163.20001220703</ele>
        <time>2015-03-08T10:20:24Z</time>
      </trkpt>
      <trkpt lat="49.19383" lon="2.00572">
        <ele>164.79998779297</ele>
        <time>2015-03-08T10:20:30Z</time>
      </trkpt>
      <trkpt lat="49.19402" lon="2.00607">
        <ele>165.20001220703</ele>
        <time>2015-03-08T10:20:51Z</time>
      </trkpt>
      <trkpt lat="49.19416" lon="2.00635">
        <ele>165.40002441406</ele>
        <time>2015-03-08T10:21:05Z</time>
      </trkpt>
      <trkpt lat="49.1942" lon="2.00661">
        <ele>166.20001220703</ele>
        <time>2015-03-08T10:21:16Z</time>
      </trkpt>
      <trkpt lat="49.19425" lon="2.00686">
        <ele>168</ele>
        <time>2015-03-08T10:21:25Z</time>
      </trkpt>
      <trkpt lat="49.19424" lon="2.00689">
        <ele>168.20001220703</ele>
        <time>2015-03-08T10:21:26Z</time>
      </trkpt>
      <trkpt lat="49.19416" lon="2.00695">
        <ele>167.79998779297</ele>
        <time>2015-03-08T10:21:29Z</time>
      </trkpt>
      <trkpt lat="49.194" lon="2.00714">
        <ele>168.20001220703</ele>
        <time>2015-03-08T10:21:37Z</time>
      </trkpt>
      <trkpt lat="49.19389" lon="2.00751">
        <ele>171</ele>
        <time>2015-03-08T10:21:52Z</time>
      </trkpt>
      <trkpt lat="49.19381" lon="2.00818">
        <ele>171.59997558594</ele>
        <time>2015-03-08T10:22:08Z</time>
      </trkpt>
      <trkpt lat="49.1936" lon="2.00863">
        <ele>173</ele>
        <time>2015-03-08T10:22:20Z</time>
      </trkpt>
      <trkpt lat="49.19347" lon="2.00883">
        <ele>174.79998779297</ele>
        <time>2015-03-08T10:22:27Z</time>
      </trkpt>
      <trkpt lat="49.19338" lon="2.00897">
        <ele>175.59997558594</ele>
        <time>2015-03-08T10:22:32Z</time>
      </trkpt>
      <trkpt lat="49.19301" lon="2.00962">
        <ele>178.20001220703</ele>
        <time>2015-03-08T10:22:52Z</time>
      </trkpt>
      <trkpt lat="49.19275" lon="2.01013">
        <ele>178.79998779297</ele>
        <time>2015-03-08T10:23:04Z</time>
      </trkpt>
      <trkpt lat="49.19267" lon="2.01039">
        <ele>179</ele>
        <time>2015-03-08T10:23:13Z</time>
      </trkpt>
      <trkpt lat="49.19235" lon="2.0111">
        <ele>178.79998779297</ele>
        <time>2015-03-08T10:23:32Z</time>
      </trkpt>
      <trkpt lat="49.19221" lon="2.01137">
        <ele>178.79998779297</ele>
        <time>2015-03-08T10:23:42Z</time>
      </trkpt>
      <trkpt lat="49.19219" lon="2.01156">
        <ele>179</ele>
        <time>2015-03-08T10:23:46Z</time>
      </trkpt>
      <trkpt lat="49.19211" lon="2.01172">
        <ele>178.79998779297</ele>
        <time>2015-03-08T10:23:51Z</time>
      </trkpt>
      <trkpt lat="49.19175" lon="2.01234">
        <ele>179</ele>
        <time>2015-03-08T10:24:11Z</time>
      </trkpt>
      <trkpt lat="49.19157" lon="2.01299">
        <ele>179</ele>
        <time>2015-03-08T10:24:30Z</time>
      </trkpt>
      <trkpt lat="49.19146" lon="2.01359">
        <ele>178</ele>
        <time>2015-03-08T10:24:40Z</time>
      </trkpt>
      <trkpt lat="49.19129" lon="2.01429">
        <ele>176.59997558594</ele>
        <time>2015-03-08T10:24:52Z</time>
      </trkpt>
      <trkpt lat="49.19119" lon="2.01503">
        <ele>175.79998779297</ele>
        <time>2015-03-08T10:25:04Z</time>
      </trkpt>
      <trkpt lat="49.19118" lon="2.01529">
        <ele>176.40002441406</ele>
        <time>2015-03-08T10:25:10Z</time>
      </trkpt>
      <trkpt lat="49.19114" lon="2.01601">
        <ele>176</ele>
        <time>2015-03-08T10:25:23Z</time>
      </trkpt>
      <trkpt lat="49.19094" lon="2.01697">
        <ele>175.79998779297</ele>
        <time>2015-03-08T10:25:43Z</time>
      </trkpt>
      <trkpt lat="49.19075" lon="2.0177">
        <ele>176.59997558594</ele>
        <time>2015-03-08T10:25:55Z</time>
      </trkpt>
      <trkpt lat="49.19061" lon="2.0183">
        <ele>177.20001220703</ele>
        <time>2015-03-08T10:26:05Z</time>
      </trkpt>
      <trkpt lat="49.19045" lon="2.01886">
        <ele>178.20001220703</ele>
        <time>2015-03-08T10:26:14Z</time>
      </trkpt>
      <trkpt lat="49.19035" lon="2.01914">
        <ele>178.59997558594</ele>
        <time>2015-03-08T10:26:19Z</time>
      </trkpt>
      <trkpt lat="49.1899" lon="2.02032">
        <ele>178.40002441406</ele>
        <time>2015-03-08T10:26:37Z</time>
      </trkpt>
      <trkpt lat="49.1897" lon="2.02084">
        <ele>178.40002441406</ele>
        <time>2015-03-08T10:26:45Z</time>
      </trkpt>
      <trkpt lat="49.18966" lon="2.02089">
        <ele>178.40002441406</ele>
        <time>2015-03-08T10:26:46Z</time>
      </trkpt>
      <trkpt lat="49.18939" lon="2.02121">
        <ele>180</ele>
        <time>2015-03-08T10:26:53Z</time>
      </trkpt>
      <trkpt lat="49.18916" lon="2.02139">
        <ele>180.40002441406</ele>
        <time>2015-03-08T10:26:58Z</time>
      </trkpt>
      <trkpt lat="49.1889" lon="2.02163">
        <ele>179.40002441406</ele>
        <time>2015-03-08T10:27:03Z</time>
      </trkpt>
      <trkpt lat="49.1886" lon="2.02187">
        <ele>179.40002441406</ele>
        <time>2015-03-08T10:27:09Z</time>
      </trkpt>
      <trkpt lat="49.18831" lon="2.02214">
        <ele>179.79998779297</ele>
        <time>2015-03-08T10:27:16Z</time>
      </trkpt>
      <trkpt lat="49.1878" lon="2.02244">
        <ele>180.20001220703</ele>
        <time>2015-03-08T10:27:31Z</time>
      </trkpt>
      <trkpt lat="49.18771" lon="2.02243">
        <ele>180.20001220703</ele>
        <time>2015-03-08T10:27:37Z</time>
      </trkpt>
      <trkpt lat="49.18762" lon="2.02245">
        <ele>180.20001220703</ele>
        <time>2015-03-08T10:27:49Z</time>
      </trkpt>
      <trkpt lat="49.18762" lon="2.02245">
        <ele>180</ele>
        <time>2015-03-08T10:28:37Z</time>
      </trkpt>
      <trkpt lat="49.18761" lon="2.02245">
        <ele>179.79998779297</ele>
        <time>2015-03-08T10:31:06Z</time>
      </trkpt>
      <trkpt lat="49.18761" lon="2.02245">
        <ele>180.59997558594</ele>
        <time>2015-03-08T10:33:16Z</time>
      </trkpt>
      <trkpt lat="49.1876" lon="2.02246">
        <ele>180.79998779297</ele>
        <time>2015-03-08T10:35:19Z</time>
      </trkpt>
      <trkpt lat="49.18744" lon="2.02246">
        <ele>181</ele>
        <time>2015-03-08T10:35:52Z</time>
      </trkpt>
      <trkpt lat="49.18713" lon="2.02237">
        <ele>181.59997558594</ele>
        <time>2015-03-08T10:36:05Z</time>
      </trkpt>
      <trkpt lat="49.18656" lon="2.02228">
        <ele>182.40002441406</ele>
        <time>2015-03-08T10:36:22Z</time>
      </trkpt>
      <trkpt lat="49.18614" lon="2.02221">
        <ele>183</ele>
        <time>2015-03-08T10:36:35Z</time>
      </trkpt>
      <trkpt lat="49.18571" lon="2.0221">
        <ele>183.40002441406</ele>
        <time>2015-03-08T10:36:47Z</time>
      </trkpt>
      <trkpt lat="49.18547" lon="2.02192">
        <ele>183.20001220703</ele>
        <time>2015-03-08T10:36:54Z</time>
      </trkpt>
      <trkpt lat="49.18503" lon="2.0218">
        <ele>183.40002441406</ele>
        <time>2015-03-08T10:37:05Z</time>
      </trkpt>
      <trkpt lat="49.1844" lon="2.02163">
        <ele>183.59997558594</ele>
        <time>2015-03-08T10:37:19Z</time>
      </trkpt>
      <trkpt lat="49.18401" lon="2.02115">
        <ele>183.79998779297</ele>
        <time>2015-03-08T10:37:32Z</time>
      </trkpt>
      <trkpt lat="49.18361" lon="2.02047">
        <ele>183.59997558594</ele>
        <time>2015-03-08T10:37:45Z</time>
      </trkpt>
      <trkpt lat="49.18328" lon="2.01993">
        <ele>183.40002441406</ele>
        <time>2015-03-08T10:37:55Z</time>
      </trkpt>
      <trkpt lat="49.18313" lon="2.01976">
        <ele>183.59997558594</ele>
        <time>2015-03-08T10:37:59Z</time>
      </trkpt>
      <trkpt lat="49.18299" lon="2.01954">
        <ele>183.59997558594</ele>
        <time>2015-03-08T10:38:03Z</time>
      </trkpt>
      <trkpt lat="49.1829" lon="2.01935">
        <ele>183.40002441406</ele>
        <time>2015-03-08T10:38:06Z</time>
      </trkpt>
      <trkpt lat="49.18274" lon="2.01896">
        <ele>183.40002441406</ele>
        <time>2015-03-08T10:38:12Z</time>
      </trkpt>
      <trkpt lat="49.18248" lon="2.01859">
        <ele>183.20001220703</ele>
        <time>2015-03-08T10:38:19Z</time>
      </trkpt>
      <trkpt lat="49.18218" lon="2.01814">
        <ele>183.40002441406</ele>
        <time>2015-03-08T10:38:27Z</time>
      </trkpt>
      <trkpt lat="49.18206" lon="2.01791">
        <ele>183.40002441406</ele>
        <time>2015-03-08T10:38:31Z</time>
      </trkpt>
      <trkpt lat="49.18185" lon="2.01762">
        <ele>183.20001220703</ele>
        <time>2015-03-08T10:38:37Z</time>
      </trkpt>
      <trkpt lat="49.18166" lon="2.01735">
        <ele>183</ele>
        <time>2015-03-08T10:38:43Z</time>
      </trkpt>
      <trkpt lat="49.18148" lon="2.01704">
        <ele>183.20001220703</ele>
        <time>2015-03-08T10:38:49Z</time>
      </trkpt>
      <trkpt lat="49.1813" lon="2.01676">
        <ele>183.20001220703</ele>
        <time>2015-03-08T10:38:55Z</time>
      </trkpt>
      <trkpt lat="49.18111" lon="2.01651">
        <ele>183.79998779297</ele>
        <time>2015-03-08T10:39:03Z</time>
      </trkpt>
      <trkpt lat="49.18072" lon="2.01617">
        <ele>184</ele>
        <time>2015-03-08T10:39:13Z</time>
      </trkpt>
      <trkpt lat="49.1801" lon="2.01568">
        <ele>183.79998779297</ele>
        <time>2015-03-08T10:39:27Z</time>
      </trkpt>
      <trkpt lat="49.17946" lon="2.01533">
        <ele>185</ele>
        <time>2015-03-08T10:39:41Z</time>
      </trkpt>
      <trkpt lat="49.17933" lon="2.01501">
        <ele>184.79998779297</ele>
        <time>2015-03-08T10:39:46Z</time>
      </trkpt>
      <trkpt lat="49.1793" lon="2.01481">
        <ele>184.40002441406</ele>
        <time>2015-03-08T10:39:49Z</time>
      </trkpt>
      <trkpt lat="49.17905" lon="2.01463">
        <ele>184.40002441406</ele>
        <time>2015-03-08T10:39:56Z</time>
      </trkpt>
      <trkpt lat="49.17874" lon="2.01509">
        <ele>183.79998779297</ele>
        <time>2015-03-08T10:40:06Z</time>
      </trkpt>
      <trkpt lat="49.17871" lon="2.01515">
        <ele>183.59997558594</ele>
        <time>2015-03-08T10:40:07Z</time>
      </trkpt>
      <trkpt lat="49.17859" lon="2.0153">
        <ele>182.59997558594</ele>
        <time>2015-03-08T10:40:11Z</time>
      </trkpt>
      <trkpt lat="49.17857" lon="2.0153">
        <ele>181.20001220703</ele>
        <time>2015-03-08T10:40:16Z</time>
      </trkpt>
      <trkpt lat="49.17857" lon="2.0153">
        <ele>185.20001220703</ele>
        <time>2015-03-08T10:40:18Z</time>
      </trkpt>
      <trkpt lat="49.17857" lon="2.0153">
        <ele>181.79998779297</ele>
        <time>2015-03-08T10:40:22Z</time>
      </trkpt>
      <trkpt lat="49.17857" lon="2.0153">
        <ele>181.79998779297</ele>
        <time>2015-03-08T10:40:24Z</time>
      </trkpt>
      <trkpt lat="49.17857" lon="2.01531">
        <ele>181.20001220703</ele>
        <time>2015-03-08T10:41:25Z</time>
      </trkpt>
      <trkpt lat="49.17857" lon="2.01535">
        <ele>180.59997558594</ele>
        <time>2015-03-08T10:41:36Z</time>
      </trkpt>
      <trkpt lat="49.17856" lon="2.01538">
        <ele>181</ele>
        <time>2015-03-08T10:41:50Z</time>
      </trkpt>
      <trkpt lat="49.17852" lon="2.01579">
        <ele>178.40002441406</ele>
        <time>2015-03-08T10:41:57Z</time>
      </trkpt>
      <trkpt lat="49.17851" lon="2.01586">
        <ele>178</ele>
        <time>2015-03-08T10:41:58Z</time>
      </trkpt>
      <trkpt lat="49.17846" lon="2.01618">
        <ele>176.20001220703</ele>
        <time>2015-03-08T10:42:02Z</time>
      </trkpt>
      <trkpt lat="49.17839" lon="2.01662">
        <ele>172.59997558594</ele>
        <time>2015-03-08T10:42:07Z</time>
      </trkpt>
      <trkpt lat="49.17831" lon="2.01695">
        <ele>170.20001220703</ele>
        <time>2015-03-08T10:42:11Z</time>
      </trkpt>
      <trkpt lat="49.17821" lon="2.01739">
        <ele>167.59997558594</ele>
        <time>2015-03-08T10:42:16Z</time>
      </trkpt>
      <trkpt lat="49.17818" lon="2.01764">
        <ele>166.59997558594</ele>
        <time>2015-03-08T10:42:19Z</time>
      </trkpt>
      <trkpt lat="49.17807" lon="2.0187">
        <ele>163.40002441406</ele>
        <time>2015-03-08T10:42:29Z</time>
      </trkpt>
      <trkpt lat="49.17806" lon="2.01878">
        <ele>163.20001220703</ele>
        <time>2015-03-08T10:42:30Z</time>
      </trkpt>
      <trkpt lat="49.17789" lon="2.01905">
        <ele>160.59997558594</ele>
        <time>2015-03-08T10:42:34Z</time>
      </trkpt>
      <trkpt lat="49.1777" lon="2.01934">
        <ele>157.59997558594</ele>
        <time>2015-03-08T10:42:38Z</time>
      </trkpt>
      <trkpt lat="49.17756" lon="2.01956">
        <ele>153.40002441406</ele>
        <time>2015-03-08T10:42:42Z</time>
      </trkpt>
      <trkpt lat="49.17741" lon="2.01955">
        <ele>151</ele>
        <time>2015-03-08T10:42:47Z</time>
      </trkpt>
      <trkpt lat="49.17728" lon="2.0193">
        <ele>148.40002441406</ele>
        <time>2015-03-08T10:42:53Z</time>
      </trkpt>
      <trkpt lat="49.17706" lon="2.01863">
        <ele>146</ele>
        <time>2015-03-08T10:43:01Z</time>
      </trkpt>
      <trkpt lat="49.1769" lon="2.01814">
        <ele>144.40002441406</ele>
        <time>2015-03-08T10:43:06Z</time>
      </trkpt>
      <trkpt lat="49.17684" lon="2.01773">
        <ele>143.20001220703</ele>
        <time>2015-03-08T10:43:10Z</time>
      </trkpt>
      <trkpt lat="49.17685" lon="2.0175">
        <ele>142.40002441406</ele>
        <time>2015-03-08T10:43:13Z</time>
      </trkpt>
      <trkpt lat="49.17687" lon="2.01729">
        <ele>141.20001220703</ele>
        <time>2015-03-08T10:43:18Z</time>
      </trkpt>
      <trkpt lat="49.17688" lon="2.01726">
        <ele>141</ele>
        <time>2015-03-08T10:43:19Z</time>
      </trkpt>
      <trkpt lat="49.17692" lon="2.01691">
        <ele>142</ele>
        <time>2015-03-08T10:43:33Z</time>
      </trkpt>
      <trkpt lat="49.17692" lon="2.01691">
        <ele>142</ele>
        <time>2015-03-08T10:43:59Z</time>
      </trkpt>
      <trkpt lat="49.17692" lon="2.0169">
        <ele>142.20001220703</ele>
        <time>2015-03-08T10:44:52Z</time>
      </trkpt>
      <trkpt lat="49.17684" lon="2.01652">
        <ele>142</ele>
        <time>2015-03-08T10:45:04Z</time>
      </trkpt>
      <trkpt lat="49.17683" lon="2.0162">
        <ele>142.59997558594</ele>
        <time>2015-03-08T10:45:15Z</time>
      </trkpt>
      <trkpt lat="49.17677" lon="2.01591">
        <ele>143.59997558594</ele>
        <time>2015-03-08T10:45:34Z</time>
      </trkpt>
      <trkpt lat="49.17671" lon="2.01565">
        <ele>144.20001220703</ele>
        <time>2015-03-08T10:45:45Z</time>
      </trkpt>
      <trkpt lat="49.17666" lon="2.01526">
        <ele>145</ele>
        <time>2015-03-08T10:45:55Z</time>
      </trkpt>
      <trkpt lat="49.17653" lon="2.0147">
        <ele>147.40002441406</ele>
        <time>2015-03-08T10:46:14Z</time>
      </trkpt>
      <trkpt lat="49.17645" lon="2.01423">
        <ele>147.40002441406</ele>
        <time>2015-03-08T10:46:25Z</time>
      </trkpt>
      <trkpt lat="49.17632" lon="2.01391">
        <ele>145.20001220703</ele>
        <time>2015-03-08T10:46:32Z</time>
      </trkpt>
      <trkpt lat="49.17618" lon="2.01349">
        <ele>143.79998779297</ele>
        <time>2015-03-08T10:46:40Z</time>
      </trkpt>
      <trkpt lat="49.1761" lon="2.0133">
        <ele>142.79998779297</ele>
        <time>2015-03-08T10:46:43Z</time>
      </trkpt>
      <trkpt lat="49.17606" lon="2.01315">
        <ele>142.59997558594</ele>
        <time>2015-03-08T10:46:45Z</time>
      </trkpt>
      <trkpt lat="49.17603" lon="2.01291">
        <ele>141.59997558594</ele>
        <time>2015-03-08T10:46:48Z</time>
      </trkpt>
      <trkpt lat="49.17603" lon="2.01283">
        <ele>141.40002441406</ele>
        <time>2015-03-08T10:46:49Z</time>
      </trkpt>
      <trkpt lat="49.17592" lon="2.01223">
        <ele>140.20001220703</ele>
        <time>2015-03-08T10:46:58Z</time>
      </trkpt>
      <trkpt lat="49.17566" lon="2.01197">
        <ele>141.59997558594</ele>
        <time>2015-03-08T10:47:07Z</time>
      </trkpt>
      <trkpt lat="49.17541" lon="2.01194">
        <ele>144.79998779297</ele>
        <time>2015-03-08T10:47:15Z</time>
      </trkpt>
      <trkpt lat="49.17501" lon="2.01174">
        <ele>148</ele>
        <time>2015-03-08T10:47:28Z</time>
      </trkpt>
      <trkpt lat="49.17481" lon="2.01151">
        <ele>149.20001220703</ele>
        <time>2015-03-08T10:47:36Z</time>
      </trkpt>
      <trkpt lat="49.1745" lon="2.01133">
        <ele>150.20001220703</ele>
        <time>2015-03-08T10:47:45Z</time>
      </trkpt>
      <trkpt lat="49.17443" lon="2.01125">
        <ele>151.20001220703</ele>
        <time>2015-03-08T10:47:48Z</time>
      </trkpt>
      <trkpt lat="49.17418" lon="2.01087">
        <ele>154.40002441406</ele>
        <time>2015-03-08T10:48:00Z</time>
      </trkpt>
      <trkpt lat="49.17417" lon="2.01054">
        <ele>156.59997558594</ele>
        <time>2015-03-08T10:48:08Z</time>
      </trkpt>
      <trkpt lat="49.17414" lon="2.0101">
        <ele>156.79998779297</ele>
        <time>2015-03-08T10:48:18Z</time>
      </trkpt>
      <trkpt lat="49.17411" lon="2.01">
        <ele>155.40002441406</ele>
        <time>2015-03-08T10:48:19Z</time>
      </trkpt>
      <trkpt lat="49.17405" lon="2.00979">
        <ele>153.40002441406</ele>
        <time>2015-03-08T10:48:21Z</time>
      </trkpt>
      <trkpt lat="49.17376" lon="2.00933">
        <ele>150.40002441406</ele>
        <time>2015-03-08T10:48:26Z</time>
      </trkpt>
      <trkpt lat="49.17356" lon="2.00904">
        <ele>150.20001220703</ele>
        <time>2015-03-08T10:48:30Z</time>
      </trkpt>
      <trkpt lat="49.17343" lon="2.00884">
        <ele>152.59997558594</ele>
        <time>2015-03-08T10:48:35Z</time>
      </trkpt>
      <trkpt lat="49.17333" lon="2.00865">
        <ele>155.79998779297</ele>
        <time>2015-03-08T10:48:44Z</time>
      </trkpt>
      <trkpt lat="49.17329" lon="2.00857">
        <ele>156.79998779297</ele>
        <time>2015-03-08T10:48:48Z</time>
      </trkpt>
      <trkpt lat="49.17317" lon="2.00835">
        <ele>159</ele>
        <time>2015-03-08T10:49:00Z</time>
      </trkpt>
      <trkpt lat="49.17288" lon="2.00794">
        <ele>158.79998779297</ele>
        <time>2015-03-08T10:49:19Z</time>
      </trkpt>
      <trkpt lat="49.17275" lon="2.00774">
        <ele>155.40002441406</ele>
        <time>2015-03-08T10:49:23Z</time>
      </trkpt>
      <trkpt lat="49.17269" lon="2.00767">
        <ele>154.20001220703</ele>
        <time>2015-03-08T10:49:24Z</time>
      </trkpt>
      <trkpt lat="49.17253" lon="2.00735">
        <ele>150.40002441406</ele>
        <time>2015-03-08T10:49:28Z</time>
      </trkpt>
      <trkpt lat="49.17238" lon="2.00708">
        <ele>147.59997558594</ele>
        <time>2015-03-08T10:49:32Z</time>
      </trkpt>
      <trkpt lat="49.17216" lon="2.00661">
        <ele>145.20001220703</ele>
        <time>2015-03-08T10:49:40Z</time>
      </trkpt>
      <trkpt lat="49.17198" lon="2.00626">
        <ele>142.79998779297</ele>
        <time>2015-03-08T10:49:46Z</time>
      </trkpt>
      <trkpt lat="49.1718" lon="2.00605">
        <ele>141.79998779297</ele>
        <time>2015-03-08T10:49:51Z</time>
      </trkpt>
      <trkpt lat="49.17143" lon="2.00566">
        <ele>139.40002441406</ele>
        <time>2015-03-08T10:49:59Z</time>
      </trkpt>
      <trkpt lat="49.17124" lon="2.0053">
        <ele>138.59997558594</ele>
        <time>2015-03-08T10:50:05Z</time>
      </trkpt>
      <trkpt lat="49.17121" lon="2.00524">
        <ele>138.40002441406</ele>
        <time>2015-03-08T10:50:06Z</time>
      </trkpt>
      <trkpt lat="49.17111" lon="2.00474">
        <ele>137.40002441406</ele>
        <time>2015-03-08T10:50:12Z</time>
      </trkpt>
      <trkpt lat="49.1711" lon="2.0046">
        <ele>137.40002441406</ele>
        <time>2015-03-08T10:50:14Z</time>
      </trkpt>
      <trkpt lat="49.17112" lon="2.00374">
        <ele>139.59997558594</ele>
        <time>2015-03-08T10:50:27Z</time>
      </trkpt>
      <trkpt lat="49.17108" lon="2.00342">
        <ele>142.40002441406</ele>
        <time>2015-03-08T10:50:34Z</time>
      </trkpt>
      <trkpt lat="49.17106" lon="2.00318">
        <ele>142.20001220703</ele>
        <time>2015-03-08T10:50:39Z</time>
      </trkpt>
      <trkpt lat="49.17096" lon="2.00322">
        <ele>140</ele>
        <time>2015-03-08T10:50:45Z</time>
      </trkpt>
      <trkpt lat="49.17088" lon="2.00328">
        <ele>139.40002441406</ele>
        <time>2015-03-08T10:50:47Z</time>
      </trkpt>
      <trkpt lat="49.17065" lon="2.00346">
        <ele>136.59997558594</ele>
        <time>2015-03-08T10:50:53Z</time>
      </trkpt>
      <trkpt lat="49.17062" lon="2.00346">
        <ele>136</ele>
        <time>2015-03-08T10:51:06Z</time>
      </trkpt>
      <trkpt lat="49.17055" lon="2.00347">
        <ele>136.40002441406</ele>
        <time>2015-03-08T10:51:18Z</time>
      </trkpt>
      <trkpt lat="49.17034" lon="2.0036">
        <ele>135.40002441406</ele>
        <time>2015-03-08T10:51:23Z</time>
      </trkpt>
      <trkpt lat="49.17026" lon="2.00365">
        <ele>134</ele>
        <time>2015-03-08T10:51:25Z</time>
      </trkpt>
      <trkpt lat="49.17022" lon="2.00373">
        <ele>132.40002441406</ele>
        <time>2015-03-08T10:51:29Z</time>
      </trkpt>
      <trkpt lat="49.17022" lon="2.00374">
        <ele>131.59997558594</ele>
        <time>2015-03-08T10:51:32Z</time>
      </trkpt>
      <trkpt lat="49.17014" lon="2.0038">
        <ele>131.20001220703</ele>
        <time>2015-03-08T10:51:37Z</time>
      </trkpt>
      <trkpt lat="49.1701" lon="2.00385">
        <ele>130.40002441406</ele>
        <time>2015-03-08T10:51:41Z</time>
      </trkpt>
      <trkpt lat="49.16999" lon="2.00402">
        <ele>129.40002441406</ele>
        <time>2015-03-08T10:51:48Z</time>
      </trkpt>
      <trkpt lat="49.16979" lon="2.00413">
        <ele>128.40002441406</ele>
        <time>2015-03-08T10:51:53Z</time>
      </trkpt>
      <trkpt lat="49.1697" lon="2.0042">
        <ele>127.79998779297</ele>
        <time>2015-03-08T10:51:55Z</time>
      </trkpt>
      <trkpt lat="49.1694" lon="2.0044">
        <ele>124.59997558594</ele>
        <time>2015-03-08T10:52:03Z</time>
      </trkpt>
      <trkpt lat="49.16934" lon="2.00444">
        <ele>123.59997558594</ele>
        <time>2015-03-08T10:52:05Z</time>
      </trkpt>
      <trkpt lat="49.169" lon="2.00465">
        <ele>120.79998779297</ele>
        <time>2015-03-08T10:52:14Z</time>
      </trkpt>
      <trkpt lat="49.16891" lon="2.00468">
        <ele>120.20001220703</ele>
        <time>2015-03-08T10:52:16Z</time>
      </trkpt>
      <trkpt lat="49.16886" lon="2.0047">
        <ele>120</ele>
        <time>2015-03-08T10:52:17Z</time>
      </trkpt>
      <trkpt lat="49.16874" lon="2.0048">
        <ele>118.59997558594</ele>
        <time>2015-03-08T10:52:20Z</time>
      </trkpt>
      <trkpt lat="49.16861" lon="2.00492">
        <ele>117.79998779297</ele>
        <time>2015-03-08T10:52:23Z</time>
      </trkpt>
      <trkpt lat="49.16844" lon="2.00507">
        <ele>116.59997558594</ele>
        <time>2015-03-08T10:52:27Z</time>
      </trkpt>
      <trkpt lat="49.16785" lon="2.00561">
        <ele>113.20001220703</ele>
        <time>2015-03-08T10:52:39Z</time>
      </trkpt>
      <trkpt lat="49.16776" lon="2.00566">
        <ele>113</ele>
        <time>2015-03-08T10:52:41Z</time>
      </trkpt>
      <trkpt lat="49.16772" lon="2.00568">
        <ele>112.79998779297</ele>
        <time>2015-03-08T10:52:42Z</time>
      </trkpt>
      <trkpt lat="49.16743" lon="2.00581">
        <ele>111.59997558594</ele>
        <time>2015-03-08T10:52:48Z</time>
      </trkpt>
      <trkpt lat="49.16732" lon="2.00583">
        <ele>111.40002441406</ele>
        <time>2015-03-08T10:52:50Z</time>
      </trkpt>
      <trkpt lat="49.16687" lon="2.00589">
        <ele>110.40002441406</ele>
        <time>2015-03-08T10:53:02Z</time>
      </trkpt>
      <trkpt lat="49.16653" lon="2.00578">
        <ele>108.79998779297</ele>
        <time>2015-03-08T10:53:13Z</time>
      </trkpt>
      <trkpt lat="49.16618" lon="2.00565">
        <ele>107.20001220703</ele>
        <time>2015-03-08T10:55:04Z</time>
      </trkpt>
      <trkpt lat="49.1661" lon="2.00559">
        <ele>106</ele>
        <time>2015-03-08T11:01:34Z</time>
      </trkpt>
      <trkpt lat="49.16603" lon="2.00557">
        <ele>106</ele>
        <time>2015-03-08T11:01:36Z</time>
      </trkpt>
      <trkpt lat="49.16583" lon="2.00548">
        <ele>102.40002441406</ele>
        <time>2015-03-08T11:01:41Z</time>
      </trkpt>
      <trkpt lat="49.16579" lon="2.00546">
        <ele>102.79998779297</ele>
        <time>2015-03-08T11:01:42Z</time>
      </trkpt>
      <trkpt lat="49.16572" lon="2.00543">
        <ele>108</ele>
        <time>2015-03-08T11:01:44Z</time>
      </trkpt>
      <trkpt lat="49.16558" lon="2.00541">
        <ele>106</ele>
        <time>2015-03-08T11:01:47Z</time>
      </trkpt>
      <trkpt lat="49.16525" lon="2.00551">
        <ele>106</ele>
        <time>2015-03-08T11:01:54Z</time>
      </trkpt>
      <trkpt lat="49.1648" lon="2.00557">
        <ele>105.79998779297</ele>
        <time>2015-03-08T11:02:05Z</time>
      </trkpt>
      <trkpt lat="49.16474" lon="2.00532">
        <ele>106.79998779297</ele>
        <time>2015-03-08T11:02:09Z</time>
      </trkpt>
      <trkpt lat="49.16463" lon="2.00493">
        <ele>107.79998779297</ele>
        <time>2015-03-08T11:02:15Z</time>
      </trkpt>
      <trkpt lat="49.16447" lon="2.00438">
        <ele>109.59997558594</ele>
        <time>2015-03-08T11:02:25Z</time>
      </trkpt>
      <trkpt lat="49.16446" lon="2.00382">
        <ele>111.40002441406</ele>
        <time>2015-03-08T11:02:36Z</time>
      </trkpt>
      <trkpt lat="49.16439" lon="2.00309">
        <ele>113.79998779297</ele>
        <time>2015-03-08T11:02:49Z</time>
      </trkpt>
      <trkpt lat="49.16437" lon="2.00299">
        <ele>114</ele>
        <time>2015-03-08T11:02:51Z</time>
      </trkpt>
      <trkpt lat="49.16414" lon="2.00233">
        <ele>117.40002441406</ele>
        <time>2015-03-08T11:03:06Z</time>
      </trkpt>
      <trkpt lat="49.16407" lon="2.00204">
        <ele>118.79998779297</ele>
        <time>2015-03-08T11:03:13Z</time>
      </trkpt>
      <trkpt lat="49.16386" lon="2.00123">
        <ele>121.59997558594</ele>
        <time>2015-03-08T11:03:33Z</time>
      </trkpt>
      <trkpt lat="49.16385" lon="2.00119">
        <ele>121.79998779297</ele>
        <time>2015-03-08T11:03:34Z</time>
      </trkpt>
      <trkpt lat="49.16361" lon="2.00012">
        <ele>125</ele>
        <time>2015-03-08T11:03:58Z</time>
      </trkpt>
      <trkpt lat="49.1636" lon="2.00008">
        <ele>125.20001220703</ele>
        <time>2015-03-08T11:03:59Z</time>
      </trkpt>
      <trkpt lat="49.1635" lon="1.99981">
        <ele>126.59997558594</ele>
        <time>2015-03-08T11:04:07Z</time>
      </trkpt>
      <trkpt lat="49.16335" lon="1.99989">
        <ele>128.20001220703</ele>
        <time>2015-03-08T11:04:16Z</time>
      </trkpt>
      <trkpt lat="49.16333" lon="1.99992">
        <ele>128.79998779297</ele>
        <time>2015-03-08T11:04:17Z</time>
      </trkpt>
      <trkpt lat="49.16305" lon="2.00041">
        <ele>130.40002441406</ele>
        <time>2015-03-08T11:04:31Z</time>
      </trkpt>
      <trkpt lat="49.1627" lon="2.00103">
        <ele>132.59997558594</ele>
        <time>2015-03-08T11:04:44Z</time>
      </trkpt>
      <trkpt lat="49.16251" lon="2.00133">
        <ele>132.79998779297</ele>
        <time>2015-03-08T11:04:50Z</time>
      </trkpt>
      <trkpt lat="49.16196" lon="2.00185">
        <ele>132.79998779297</ele>
        <time>2015-03-08T11:05:02Z</time>
      </trkpt>
      <trkpt lat="49.16143" lon="2.00213">
        <ele>132.59997558594</ele>
        <time>2015-03-08T11:05:11Z</time>
      </trkpt>
      <trkpt lat="49.16123" lon="2.00222">
        <ele>131.59997558594</ele>
        <time>2015-03-08T11:05:14Z</time>
      </trkpt>
      <trkpt lat="49.16084" lon="2.00216">
        <ele>128.59997558594</ele>
        <time>2015-03-08T11:05:19Z</time>
      </trkpt>
      <trkpt lat="49.1607" lon="2.00198">
        <ele>127.59997558594</ele>
        <time>2015-03-08T11:05:21Z</time>
      </trkpt>
      <trkpt lat="49.16056" lon="2.00178">
        <ele>126.79998779297</ele>
        <time>2015-03-08T11:05:23Z</time>
      </trkpt>
      <trkpt lat="49.16019" lon="2.0015">
        <ele>123.20001220703</ele>
        <time>2015-03-08T11:05:27Z</time>
      </trkpt>
      <trkpt lat="49.15968" lon="2.00147">
        <ele>119.79998779297</ele>
        <time>2015-03-08T11:05:32Z</time>
      </trkpt>
      <trkpt lat="49.15958" lon="2.00151">
        <ele>119.59997558594</ele>
        <time>2015-03-08T11:05:33Z</time>
      </trkpt>
      <trkpt lat="49.1587" lon="2.00197">
        <ele>123.20001220703</ele>
        <time>2015-03-08T11:05:44Z</time>
      </trkpt>
      <trkpt lat="49.15804" lon="2.00274">
        <ele>123.79998779297</ele>
        <time>2015-03-08T11:05:55Z</time>
      </trkpt>
      <trkpt lat="49.15777" lon="2.0033">
        <ele>123.59997558594</ele>
        <time>2015-03-08T11:06:01Z</time>
      </trkpt>
      <trkpt lat="49.15747" lon="2.00385">
        <ele>123</ele>
        <time>2015-03-08T11:06:07Z</time>
      </trkpt>
      <trkpt lat="49.15706" lon="2.00431">
        <ele>123.40002441406</ele>
        <time>2015-03-08T11:06:14Z</time>
      </trkpt>
      <trkpt lat="49.15689" lon="2.00472">
        <ele>124.20001220703</ele>
        <time>2015-03-08T11:06:19Z</time>
      </trkpt>
      <trkpt lat="49.15685" lon="2.00496">
        <ele>125.40002441406</ele>
        <time>2015-03-08T11:06:22Z</time>
      </trkpt>
      <trkpt lat="49.15673" lon="2.00569">
        <ele>128.79998779297</ele>
        <time>2015-03-08T11:06:32Z</time>
      </trkpt>
      <trkpt lat="49.15658" lon="2.00612">
        <ele>132</ele>
        <time>2015-03-08T11:06:41Z</time>
      </trkpt>
      <trkpt lat="49.15632" lon="2.00635">
        <ele>135.20001220703</ele>
        <time>2015-03-08T11:06:53Z</time>
      </trkpt>
      <trkpt lat="49.15603" lon="2.00648">
        <ele>136.59997558594</ele>
        <time>2015-03-08T11:07:06Z</time>
      </trkpt>
      <trkpt lat="49.15579" lon="2.00624">
        <ele>137.20001220703</ele>
        <time>2015-03-08T11:07:22Z</time>
      </trkpt>
      <trkpt lat="49.15546" lon="2.00584">
        <ele>137</ele>
        <time>2015-03-08T11:07:35Z</time>
      </trkpt>
      <trkpt lat="49.15516" lon="2.00589">
        <ele>135.79998779297</ele>
        <time>2015-03-08T11:07:42Z</time>
      </trkpt>
      <trkpt lat="49.15502" lon="2.00621">
        <ele>133.59997558594</ele>
        <time>2015-03-08T11:07:46Z</time>
      </trkpt>
      <trkpt lat="49.15484" lon="2.00678">
        <ele>132</ele>
        <time>2015-03-08T11:07:52Z</time>
      </trkpt>
      <trkpt lat="49.15454" lon="2.00723">
        <ele>130.79998779297</ele>
        <time>2015-03-08T11:07:58Z</time>
      </trkpt>
      <trkpt lat="49.15427" lon="2.00741">
        <ele>129.79998779297</ele>
        <time>2015-03-08T11:08:02Z</time>
      </trkpt>
      <trkpt lat="49.15389" lon="2.00762">
        <ele>130.40002441406</ele>
        <time>2015-03-08T11:08:08Z</time>
      </trkpt>
      <trkpt lat="49.1537" lon="2.00785">
        <ele>131.40002441406</ele>
        <time>2015-03-08T11:08:12Z</time>
      </trkpt>
      <trkpt lat="49.15307" lon="2.00881">
        <ele>133</ele>
        <time>2015-03-08T11:08:27Z</time>
      </trkpt>
      <trkpt lat="49.15293" lon="2.00949">
        <ele>133.79998779297</ele>
        <time>2015-03-08T11:08:35Z</time>
      </trkpt>
      <trkpt lat="49.15288" lon="2.01019">
        <ele>138.20001220703</ele>
        <time>2015-03-08T11:09:14Z</time>
      </trkpt>
      <trkpt lat="49.15286" lon="2.01025">
        <ele>137.79998779297</ele>
        <time>2015-03-08T11:09:15Z</time>
      </trkpt>
      <trkpt lat="49.15268" lon="2.01044">
        <ele>136.20001220703</ele>
        <time>2015-03-08T11:09:19Z</time>
      </trkpt>
      <trkpt lat="49.15238" lon="2.01063">
        <ele>135.40002441406</ele>
        <time>2015-03-08T11:09:24Z</time>
      </trkpt>
      <trkpt lat="49.15183" lon="2.01085">
        <ele>137.40002441406</ele>
        <time>2015-03-08T11:09:35Z</time>
      </trkpt>
      <trkpt lat="49.15152" lon="2.01097">
        <ele>140</ele>
        <time>2015-03-08T11:09:42Z</time>
      </trkpt>
      <trkpt lat="49.15104" lon="2.01092">
        <ele>143.59997558594</ele>
        <time>2015-03-08T11:09:53Z</time>
      </trkpt>
      <trkpt lat="49.15087" lon="2.01088">
        <ele>144.59997558594</ele>
        <time>2015-03-08T11:09:57Z</time>
      </trkpt>
      <trkpt lat="49.15034" lon="2.01086">
        <ele>147.40002441406</ele>
        <time>2015-03-08T11:10:10Z</time>
      </trkpt>
      <trkpt lat="49.14924" lon="2.0109">
        <ele>147.59997558594</ele>
        <time>2015-03-08T11:10:32Z</time>
      </trkpt>
      <trkpt lat="49.1486" lon="2.01101">
        <ele>145.59997558594</ele>
        <time>2015-03-08T11:10:41Z</time>
      </trkpt>
      <trkpt lat="49.14792" lon="2.01119">
        <ele>141.79998779297</ele>
        <time>2015-03-08T11:10:50Z</time>
      </trkpt>
      <trkpt lat="49.14749" lon="2.01134">
        <ele>139.79998779297</ele>
        <time>2015-03-08T11:10:55Z</time>
      </trkpt>
      <trkpt lat="49.14703" lon="2.01148">
        <ele>137.20001220703</ele>
        <time>2015-03-08T11:11:01Z</time>
      </trkpt>
      <trkpt lat="49.14664" lon="2.01167">
        <ele>136</ele>
        <time>2015-03-08T11:11:06Z</time>
      </trkpt>
      <trkpt lat="49.14619" lon="2.01204">
        <ele>133.79998779297</ele>
        <time>2015-03-08T11:11:12Z</time>
      </trkpt>
      <trkpt lat="49.14569" lon="2.01283">
        <ele>131.59997558594</ele>
        <time>2015-03-08T11:11:20Z</time>
      </trkpt>
      <trkpt lat="49.14525" lon="2.01411">
        <ele>128</ele>
        <time>2015-03-08T11:11:30Z</time>
      </trkpt>
      <trkpt lat="49.14508" lon="2.01448">
        <ele>126.20001220703</ele>
        <time>2015-03-08T11:11:33Z</time>
      </trkpt>
      <trkpt lat="49.14445" lon="2.01543">
        <ele>122.40002441406</ele>
        <time>2015-03-08T11:11:42Z</time>
      </trkpt>
      <trkpt lat="49.14354" lon="2.01674">
        <ele>120.40002441406</ele>
        <time>2015-03-08T11:11:57Z</time>
      </trkpt>
      <trkpt lat="49.14338" lon="2.01689">
        <ele>120.59997558594</ele>
        <time>2015-03-08T11:12:05Z</time>
      </trkpt>
      <trkpt lat="49.14321" lon="2.01735">
        <ele>121.20001220703</ele>
        <time>2015-03-08T11:12:14Z</time>
      </trkpt>
      <trkpt lat="49.14302" lon="2.01831">
        <ele>123</ele>
        <time>2015-03-08T11:12:27Z</time>
      </trkpt>
      <trkpt lat="49.14304" lon="2.01846">
        <ele>123.40002441406</ele>
        <time>2015-03-08T11:12:29Z</time>
      </trkpt>
      <trkpt lat="49.14313" lon="2.01897">
        <ele>124.20001220703</ele>
        <time>2015-03-08T11:12:35Z</time>
      </trkpt>
      <trkpt lat="49.14303" lon="2.01976">
        <ele>124.59997558594</ele>
        <time>2015-03-08T11:12:44Z</time>
      </trkpt>
      <trkpt lat="49.14278" lon="2.02013">
        <ele>125.40002441406</ele>
        <time>2015-03-08T11:12:50Z</time>
      </trkpt>
      <trkpt lat="49.1425" lon="2.02053">
        <ele>126.40002441406</ele>
        <time>2015-03-08T11:12:57Z</time>
      </trkpt>
      <trkpt lat="49.14228" lon="2.02127">
        <ele>127.79998779297</ele>
        <time>2015-03-08T11:13:08Z</time>
      </trkpt>
      <trkpt lat="49.14245" lon="2.02164">
        <ele>127.40002441406</ele>
        <time>2015-03-08T11:13:14Z</time>
      </trkpt>
      <trkpt lat="49.14258" lon="2.02199">
        <ele>126.40002441406</ele>
        <time>2015-03-08T11:13:18Z</time>
      </trkpt>
      <trkpt lat="49.14262" lon="2.02229">
        <ele>125.40002441406</ele>
        <time>2015-03-08T11:13:21Z</time>
      </trkpt>
      <trkpt lat="49.14251" lon="2.02305">
        <ele>124.59997558594</ele>
        <time>2015-03-08T11:13:29Z</time>
      </trkpt>
      <trkpt lat="49.14223" lon="2.02346">
        <ele>124</ele>
        <time>2015-03-08T11:13:35Z</time>
      </trkpt>
      <trkpt lat="49.14188" lon="2.02335">
        <ele>122.59997558594</ele>
        <time>2015-03-08T11:13:41Z</time>
      </trkpt>
      <trkpt lat="49.14076" lon="2.0222">
        <ele>122.20001220703</ele>
        <time>2015-03-08T11:14:00Z</time>
      </trkpt>
      <trkpt lat="49.14028" lon="2.02159">
        <ele>119.59997558594</ele>
        <time>2015-03-08T11:14:08Z</time>
      </trkpt>
      <trkpt lat="49.14025" lon="2.02117">
        <ele>118.20001220703</ele>
        <time>2015-03-08T11:14:12Z</time>
      </trkpt>
      <trkpt lat="49.14031" lon="2.02097">
        <ele>118.40002441406</ele>
        <time>2015-03-08T11:14:14Z</time>
      </trkpt>
      <trkpt lat="49.1405" lon="2.02049">
        <ele>119.59997558594</ele>
        <time>2015-03-08T11:14:19Z</time>
      </trkpt>
      <trkpt lat="49.14063" lon="2.0199">
        <ele>119.40002441406</ele>
        <time>2015-03-08T11:14:26Z</time>
      </trkpt>
      <trkpt lat="49.14047" lon="2.0195">
        <ele>118.79998779297</ele>
        <time>2015-03-08T11:14:31Z</time>
      </trkpt>
      <trkpt lat="49.1401" lon="2.01878">
        <ele>117</ele>
        <time>2015-03-08T11:14:38Z</time>
      </trkpt>
      <trkpt lat="49.13977" lon="2.01847">
        <ele>114.79998779297</ele>
        <time>2015-03-08T11:14:42Z</time>
      </trkpt>
      <trkpt lat="49.13945" lon="2.01856">
        <ele>112.40002441406</ele>
        <time>2015-03-08T11:14:45Z</time>
      </trkpt>
      <trkpt lat="49.13926" lon="2.01874">
        <ele>109.20001220703</ele>
        <time>2015-03-08T11:14:47Z</time>
      </trkpt>
      <trkpt lat="49.13901" lon="2.01908">
        <ele>106.20001220703</ele>
        <time>2015-03-08T11:14:50Z</time>
      </trkpt>
      <trkpt lat="49.13845" lon="2.01992">
        <ele>102.40002441406</ele>
        <time>2015-03-08T11:14:57Z</time>
      </trkpt>
      <trkpt lat="49.13785" lon="2.02067">
        <ele>98.799987792969</ele>
        <time>2015-03-08T11:15:04Z</time>
      </trkpt>
      <trkpt lat="49.13742" lon="2.02088">
        <ele>96</ele>
        <time>2015-03-08T11:15:08Z</time>
      </trkpt>
      <trkpt lat="49.13633" lon="2.02122">
        <ele>93.200012207031</ele>
        <time>2015-03-08T11:15:19Z</time>
      </trkpt>
      <trkpt lat="49.13586" lon="2.02136">
        <ele>92</ele>
        <time>2015-03-08T11:15:24Z</time>
      </trkpt>
      <trkpt lat="49.1353" lon="2.02143">
        <ele>90.400024414062</ele>
        <time>2015-03-08T11:15:30Z</time>
      </trkpt>
      <trkpt lat="49.13396" lon="2.02168">
        <ele>87.599975585938</ele>
        <time>2015-03-08T11:15:45Z</time>
      </trkpt>
      <trkpt lat="49.13186" lon="2.0221">
        <ele>87.400024414062</ele>
        <time>2015-03-08T11:16:09Z</time>
      </trkpt>
      <trkpt lat="49.13125" lon="2.02207">
        <ele>86.799987792969</ele>
        <time>2015-03-08T11:16:16Z</time>
      </trkpt>
      <trkpt lat="49.12996" lon="2.02192">
        <ele>84.400024414062</ele>
        <time>2015-03-08T11:16:31Z</time>
      </trkpt>
      <trkpt lat="49.12938" lon="2.02181">
        <ele>84.599975585938</ele>
        <time>2015-03-08T11:16:38Z</time>
      </trkpt>
      <trkpt lat="49.12888" lon="2.02154">
        <ele>84.799987792969</ele>
        <time>2015-03-08T11:16:45Z</time>
      </trkpt>
      <trkpt lat="49.12839" lon="2.02126">
        <ele>86.799987792969</ele>
        <time>2015-03-08T11:16:53Z</time>
      </trkpt>
      <trkpt lat="49.1281" lon="2.02117">
        <ele>87.400024414062</ele>
        <time>2015-03-08T11:17:00Z</time>
      </trkpt>
      <trkpt lat="49.12814" lon="2.02122">
        <ele>87.599975585938</ele>
        <time>2015-03-08T11:17:04Z</time>
      </trkpt>
      <trkpt lat="49.12828" lon="2.02143">
        <ele>87.200012207031</ele>
        <time>2015-03-08T11:17:12Z</time>
      </trkpt>
      <trkpt lat="49.12816" lon="2.02181">
        <ele>87.400024414062</ele>
        <time>2015-03-08T11:17:22Z</time>
      </trkpt>
      <trkpt lat="49.12806" lon="2.0222">
        <ele>86.799987792969</ele>
        <time>2015-03-08T11:17:28Z</time>
      </trkpt>
      <trkpt lat="49.12772" lon="2.02355">
        <ele>86.200012207031</ele>
        <time>2015-03-08T11:17:46Z</time>
      </trkpt>
      <trkpt lat="49.1273" lon="2.02516">
        <ele>87.400024414062</ele>
        <time>2015-03-08T11:18:08Z</time>
      </trkpt>
      <trkpt lat="49.12715" lon="2.02571">
        <ele>87.200012207031</ele>
        <time>2015-03-08T11:18:15Z</time>
      </trkpt>
      <trkpt lat="49.12675" lon="2.02624">
        <ele>86.799987792969</ele>
        <time>2015-03-08T11:18:24Z</time>
      </trkpt>
      <trkpt lat="49.12621" lon="2.02679">
        <ele>84.599975585938</ele>
        <time>2015-03-08T11:18:34Z</time>
      </trkpt>
      <trkpt lat="49.12531" lon="2.02769">
        <ele>81</ele>
        <time>2015-03-08T11:18:49Z</time>
      </trkpt>
      <trkpt lat="49.12525" lon="2.02775">
        <ele>80.799987792969</ele>
        <time>2015-03-08T11:18:50Z</time>
      </trkpt>
      <trkpt lat="49.12453" lon="2.02851">
        <ele>78.799987792969</ele>
        <time>2015-03-08T11:19:03Z</time>
      </trkpt>
      <trkpt lat="49.12441" lon="2.02862">
        <ele>78.599975585938</ele>
        <time>2015-03-08T11:19:05Z</time>
      </trkpt>
      <trkpt lat="49.1242" lon="2.02882">
        <ele>78.400024414062</ele>
        <time>2015-03-08T11:19:09Z</time>
      </trkpt>
      <trkpt lat="49.12356" lon="2.02944">
        <ele>79</ele>
        <time>2015-03-08T11:19:21Z</time>
      </trkpt>
      <trkpt lat="49.12326" lon="2.02968">
        <ele>79.799987792969</ele>
        <time>2015-03-08T11:19:27Z</time>
      </trkpt>
      <trkpt lat="49.12279" lon="2.03007">
        <ele>81.400024414062</ele>
        <time>2015-03-08T11:19:36Z</time>
      </trkpt>
      <trkpt lat="49.12242" lon="2.0304">
        <ele>83.400024414062</ele>
        <time>2015-03-08T11:19:44Z</time>
      </trkpt>
      <trkpt lat="49.12219" lon="2.03058">
        <ele>83.799987792969</ele>
        <time>2015-03-08T11:19:49Z</time>
      </trkpt>
      <trkpt lat="49.12214" lon="2.03061">
        <ele>83.799987792969</ele>
        <time>2015-03-08T11:19:50Z</time>
      </trkpt>
      <trkpt lat="49.12189" lon="2.03078">
        <ele>83.799987792969</ele>
        <time>2015-03-08T11:19:55Z</time>
      </trkpt>
      <trkpt lat="49.12116" lon="2.03094">
        <ele>82.799987792969</ele>
        <time>2015-03-08T11:20:09Z</time>
      </trkpt>
      <trkpt lat="49.12105" lon="2.03067">
        <ele>82.799987792969</ele>
        <time>2015-03-08T11:20:13Z</time>
      </trkpt>
      <trkpt lat="49.1206" lon="2.0293">
        <ele>83</ele>
        <time>2015-03-08T11:20:33Z</time>
      </trkpt>
      <trkpt lat="49.1205" lon="2.02843">
        <ele>81.400024414062</ele>
        <time>2015-03-08T11:20:42Z</time>
      </trkpt>
      <trkpt lat="49.12047" lon="2.02832">
        <ele>81</ele>
        <time>2015-03-08T11:20:43Z</time>
      </trkpt>
      <trkpt lat="49.12025" lon="2.02763">
        <ele>78.400024414062</ele>
        <time>2015-03-08T11:20:49Z</time>
      </trkpt>
      <trkpt lat="49.12016" lon="2.02732">
        <ele>78.200012207031</ele>
        <time>2015-03-08T11:20:52Z</time>
      </trkpt>
      <trkpt lat="49.12012" lon="2.02671">
        <ele>81</ele>
        <time>2015-03-08T11:20:59Z</time>
      </trkpt>
      <trkpt lat="49.12011" lon="2.02662">
        <ele>81.400024414062</ele>
        <time>2015-03-08T11:21:00Z</time>
      </trkpt>
      <trkpt lat="49.12009" lon="2.02646">
        <ele>82.400024414062</ele>
        <time>2015-03-08T11:21:02Z</time>
      </trkpt>
      <trkpt lat="49.11995" lon="2.02612">
        <ele>85</ele>
        <time>2015-03-08T11:21:08Z</time>
      </trkpt>
      <trkpt lat="49.1198" lon="2.02592">
        <ele>85.799987792969</ele>
        <time>2015-03-08T11:21:13Z</time>
      </trkpt>
      <trkpt lat="49.11973" lon="2.02584">
        <ele>86</ele>
        <time>2015-03-08T11:21:15Z</time>
      </trkpt>
      <trkpt lat="49.11924" lon="2.02511">
        <ele>88</ele>
        <time>2015-03-08T11:21:34Z</time>
      </trkpt>
      <trkpt lat="49.11897" lon="2.02473">
        <ele>90.200012207031</ele>
        <time>2015-03-08T11:21:45Z</time>
      </trkpt>
      <trkpt lat="49.11864" lon="2.02438">
        <ele>93.599975585938</ele>
        <time>2015-03-08T11:21:58Z</time>
      </trkpt>
      <trkpt lat="49.11832" lon="2.02397">
        <ele>97.200012207031</ele>
        <time>2015-03-08T11:22:13Z</time>
      </trkpt>
      <trkpt lat="49.1181" lon="2.0236">
        <ele>100.79998779297</ele>
        <time>2015-03-08T11:22:26Z</time>
      </trkpt>
      <trkpt lat="49.11777" lon="2.02326">
        <ele>104</ele>
        <time>2015-03-08T11:22:43Z</time>
      </trkpt>
      <trkpt lat="49.11773" lon="2.02323">
        <ele>104.20001220703</ele>
        <time>2015-03-08T11:22:45Z</time>
      </trkpt>
      <trkpt lat="49.11738" lon="2.02304">
        <ele>107.20001220703</ele>
        <time>2015-03-08T11:23:01Z</time>
      </trkpt>
      <trkpt lat="49.11691" lon="2.02258">
        <ele>110.40002441406</ele>
        <time>2015-03-08T11:23:22Z</time>
      </trkpt>
      <trkpt lat="49.11688" lon="2.02257">
        <ele>110.59997558594</ele>
        <time>2015-03-08T11:23:23Z</time>
      </trkpt>
      <trkpt lat="49.11628" lon="2.02238">
        <ele>113.59997558594</ele>
        <time>2015-03-08T11:23:45Z</time>
      </trkpt>
      <trkpt lat="49.11606" lon="2.02233">
        <ele>113.20001220703</ele>
        <time>2015-03-08T11:23:50Z</time>
      </trkpt>
      <trkpt lat="49.11582" lon="2.0222">
        <ele>111.59997558594</ele>
        <time>2015-03-08T11:23:55Z</time>
      </trkpt>
      <trkpt lat="49.11575" lon="2.02161">
        <ele>112</ele>
        <time>2015-03-08T11:24:04Z</time>
      </trkpt>
      <trkpt lat="49.11561" lon="2.02089">
        <ele>112.59997558594</ele>
        <time>2015-03-08T11:24:19Z</time>
      </trkpt>
      <trkpt lat="49.11544" lon="2.02079">
        <ele>112.79998779297</ele>
        <time>2015-03-08T11:24:26Z</time>
      </trkpt>
      <trkpt lat="49.11537" lon="2.02079">
        <ele>112.59997558594</ele>
        <time>2015-03-08T11:24:28Z</time>
      </trkpt>
      <trkpt lat="49.11511" lon="2.02076">
        <ele>110.79998779297</ele>
        <time>2015-03-08T11:24:33Z</time>
      </trkpt>
      <trkpt lat="49.1146" lon="2.02075">
        <ele>107.20001220703</ele>
        <time>2015-03-08T11:24:41Z</time>
      </trkpt>
      <trkpt lat="49.11412" lon="2.02071">
        <ele>103.59997558594</ele>
        <time>2015-03-08T11:24:47Z</time>
      </trkpt>
      <trkpt lat="49.11384" lon="2.0207">
        <ele>100.59997558594</ele>
        <time>2015-03-08T11:24:50Z</time>
      </trkpt>
      <trkpt lat="49.11344" lon="2.02068">
        <ele>97</ele>
        <time>2015-03-08T11:24:54Z</time>
      </trkpt>
      <trkpt lat="49.11276" lon="2.0206">
        <ele>92.799987792969</ele>
        <time>2015-03-08T11:25:01Z</time>
      </trkpt>
      <trkpt lat="49.11226" lon="2.02059">
        <ele>89.400024414062</ele>
        <time>2015-03-08T11:25:06Z</time>
      </trkpt>
      <trkpt lat="49.11176" lon="2.02055">
        <ele>86.200012207031</ele>
        <time>2015-03-08T11:25:11Z</time>
      </trkpt>
      <trkpt lat="49.11062" lon="2.02049">
        <ele>82.200012207031</ele>
        <time>2015-03-08T11:25:22Z</time>
      </trkpt>
      <trkpt lat="49.11011" lon="2.02045">
        <ele>80.799987792969</ele>
        <time>2015-03-08T11:25:28Z</time>
      </trkpt>
      <trkpt lat="49.10961" lon="2.02043">
        <ele>79.599975585938</ele>
        <time>2015-03-08T11:25:36Z</time>
      </trkpt>
      <trkpt lat="49.10958" lon="2.02081">
        <ele>79.400024414062</ele>
        <time>2015-03-08T11:25:41Z</time>
      </trkpt>
      <trkpt lat="49.10949" lon="2.02155">
        <ele>80.400024414062</ele>
        <time>2015-03-08T11:25:51Z</time>
      </trkpt>
      <trkpt lat="49.10943" lon="2.02206">
        <ele>80.599975585938</ele>
        <time>2015-03-08T11:25:58Z</time>
      </trkpt>
      <trkpt lat="49.10938" lon="2.02262">
        <ele>80.599975585938</ele>
        <time>2015-03-08T11:26:05Z</time>
      </trkpt>
      <trkpt lat="49.10929" lon="2.02308">
        <ele>80.400024414062</ele>
        <time>2015-03-08T11:26:11Z</time>
      </trkpt>
      <trkpt lat="49.10906" lon="2.0245">
        <ele>79</ele>
        <time>2015-03-08T11:26:28Z</time>
      </trkpt>
      <trkpt lat="49.10904" lon="2.02456">
        <ele>79</ele>
        <time>2015-03-08T11:26:29Z</time>
      </trkpt>
      <trkpt lat="49.10877" lon="2.02463">
        <ele>78.599975585938</ele>
        <time>2015-03-08T11:26:34Z</time>
      </trkpt>
      <trkpt lat="49.1087" lon="2.02462">
        <ele>78.400024414062</ele>
        <time>2015-03-08T11:26:35Z</time>
      </trkpt>
      <trkpt lat="49.10744" lon="2.02451">
        <ele>74.400024414062</ele>
        <time>2015-03-08T11:26:52Z</time>
      </trkpt>
      <trkpt lat="49.10653" lon="2.02439">
        <ele>72.200012207031</ele>
        <time>2015-03-08T11:27:03Z</time>
      </trkpt>
      <trkpt lat="49.10645" lon="2.02437">
        <ele>72</ele>
        <time>2015-03-08T11:27:04Z</time>
      </trkpt>
      <trkpt lat="49.10598" lon="2.02416">
        <ele>71.400024414062</ele>
        <time>2015-03-08T11:27:10Z</time>
      </trkpt>
      <trkpt lat="49.10421" lon="2.02345">
        <ele>69</ele>
        <time>2015-03-08T11:27:33Z</time>
      </trkpt>
      <trkpt lat="49.10397" lon="2.02336">
        <ele>68.799987792969</ele>
        <time>2015-03-08T11:27:36Z</time>
      </trkpt>
      <trkpt lat="49.10272" lon="2.02315">
        <ele>67.599975585938</ele>
        <time>2015-03-08T11:27:52Z</time>
      </trkpt>
      <trkpt lat="49.10136" lon="2.023">
        <ele>67.799987792969</ele>
        <time>2015-03-08T11:28:12Z</time>
      </trkpt>
      <trkpt lat="49.10092" lon="2.02292">
        <ele>67.799987792969</ele>
        <time>2015-03-08T11:28:19Z</time>
      </trkpt>
      <trkpt lat="49.09886" lon="2.02263">
        <ele>68.400024414062</ele>
        <time>2015-03-08T11:28:51Z</time>
      </trkpt>
      <trkpt lat="49.09824" lon="2.02252">
        <ele>69.200012207031</ele>
        <time>2015-03-08T11:29:02Z</time>
      </trkpt>
      <trkpt lat="49.09754" lon="2.02226">
        <ele>70.200012207031</ele>
        <time>2015-03-08T11:29:15Z</time>
      </trkpt>
      <trkpt lat="49.09631" lon="2.02163">
        <ele>71</ele>
        <time>2015-03-08T11:29:38Z</time>
      </trkpt>
      <trkpt lat="49.09479" lon="2.02068">
        <ele>69.799987792969</ele>
        <time>2015-03-08T11:30:06Z</time>
      </trkpt>
      <trkpt lat="49.09379" lon="2.02033">
        <ele>69</ele>
        <time>2015-03-08T11:30:24Z</time>
      </trkpt>
      <trkpt lat="49.0929" lon="2.02">
        <ele>67.799987792969</ele>
        <time>2015-03-08T11:30:39Z</time>
      </trkpt>
      <trkpt lat="49.09284" lon="2.01997">
        <ele>67.599975585938</ele>
        <time>2015-03-08T11:30:40Z</time>
      </trkpt>
      <trkpt lat="49.09217" lon="2.01981">
        <ele>66.599975585938</ele>
        <time>2015-03-08T11:30:51Z</time>
      </trkpt>
      <trkpt lat="49.09166" lon="2.01971">
        <ele>65.200012207031</ele>
        <time>2015-03-08T11:30:59Z</time>
      </trkpt>
      <trkpt lat="49.09087" lon="2.01957">
        <ele>65</ele>
        <time>2015-03-08T11:31:12Z</time>
      </trkpt>
      <trkpt lat="49.0901" lon="2.01953">
        <ele>66</ele>
        <time>2015-03-08T11:31:26Z</time>
      </trkpt>
      <trkpt lat="49.08937" lon="2.01963">
        <ele>66.400024414062</ele>
        <time>2015-03-08T11:31:40Z</time>
      </trkpt>
      <trkpt lat="49.08871" lon="2.01995">
        <ele>66.599975585938</ele>
        <time>2015-03-08T11:31:54Z</time>
      </trkpt>
      <trkpt lat="49.08829" lon="2.02031">
        <ele>66</ele>
        <time>2015-03-08T11:32:04Z</time>
      </trkpt>
      <trkpt lat="49.08787" lon="2.02093">
        <ele>65.799987792969</ele>
        <time>2015-03-08T11:32:17Z</time>
      </trkpt>
      <trkpt lat="49.08757" lon="2.02159">
        <ele>65.200012207031</ele>
        <time>2015-03-08T11:32:29Z</time>
      </trkpt>
      <trkpt lat="49.08746" lon="2.02189">
        <ele>65</ele>
        <time>2015-03-08T11:32:34Z</time>
      </trkpt>
      <trkpt lat="49.08721" lon="2.02239">
        <ele>64.400024414062</ele>
        <time>2015-03-08T11:32:44Z</time>
      </trkpt>
      <trkpt lat="49.08712" lon="2.02224">
        <ele>64.400024414062</ele>
        <time>2015-03-08T11:32:47Z</time>
      </trkpt>
      <trkpt lat="49.08706" lon="2.02214">
        <ele>64.799987792969</ele>
        <time>2015-03-08T11:32:49Z</time>
      </trkpt>
      <trkpt lat="49.08683" lon="2.02176">
        <ele>64.599975585938</ele>
        <time>2015-03-08T11:32:57Z</time>
      </trkpt>
      <trkpt lat="49.08639" lon="2.02125">
        <ele>64.200012207031</ele>
        <time>2015-03-08T11:33:11Z</time>
      </trkpt>
      <trkpt lat="49.08572" lon="2.02092">
        <ele>63</ele>
        <time>2015-03-08T11:33:25Z</time>
      </trkpt>
      <trkpt lat="49.08492" lon="2.021">
        <ele>61.400024414062</ele>
        <time>2015-03-08T11:33:40Z</time>
      </trkpt>
      <trkpt lat="49.08487" lon="2.02103">
        <ele>61.400024414062</ele>
        <time>2015-03-08T11:33:41Z</time>
      </trkpt>
      <trkpt lat="49.08419" lon="2.02158">
        <ele>59.400024414062</ele>
        <time>2015-03-08T11:33:54Z</time>
      </trkpt>
      <trkpt lat="49.08392" lon="2.022">
        <ele>58.799987792969</ele>
        <time>2015-03-08T11:34:00Z</time>
      </trkpt>
      <trkpt lat="49.08366" lon="2.02259">
        <ele>55.599975585938</ele>
        <time>2015-03-08T11:34:07Z</time>
      </trkpt>
      <trkpt lat="49.0836" lon="2.02278">
        <ele>54.400024414062</ele>
        <time>2015-03-08T11:34:09Z</time>
      </trkpt>
      <trkpt lat="49.08348" lon="2.0234">
        <ele>53.400024414062</ele>
        <time>2015-03-08T11:34:15Z</time>
      </trkpt>
      <trkpt lat="49.08348" lon="2.02428">
        <ele>50.599975585938</ele>
        <time>2015-03-08T11:34:23Z</time>
      </trkpt>
      <trkpt lat="49.08352" lon="2.02452">
        <ele>50</ele>
        <time>2015-03-08T11:34:25Z</time>
      </trkpt>
      <trkpt lat="49.08342" lon="2.02509">
        <ele>46.799987792969</ele>
        <time>2015-03-08T11:34:30Z</time>
      </trkpt>
      <trkpt lat="49.08331" lon="2.02542">
        <ele>45.799987792969</ele>
        <time>2015-03-08T11:34:33Z</time>
      </trkpt>
      <trkpt lat="49.083" lon="2.02633">
        <ele>42.799987792969</ele>
        <time>2015-03-08T11:34:41Z</time>
      </trkpt>
      <trkpt lat="49.08293" lon="2.02656">
        <ele>41.799987792969</ele>
        <time>2015-03-08T11:34:43Z</time>
      </trkpt>
      <trkpt lat="49.0829" lon="2.02668">
        <ele>41.599975585938</ele>
        <time>2015-03-08T11:34:44Z</time>
      </trkpt>
      <trkpt lat="49.08266" lon="2.02722">
        <ele>41.400024414062</ele>
        <time>2015-03-08T11:34:50Z</time>
      </trkpt>
      <trkpt lat="49.08237" lon="2.02755">
        <ele>42</ele>
        <time>2015-03-08T11:34:56Z</time>
      </trkpt>
      <trkpt lat="49.08186" lon="2.028">
        <ele>43.400024414062</ele>
        <time>2015-03-08T11:35:07Z</time>
      </trkpt>
      <trkpt lat="49.08167" lon="2.02831">
        <ele>44.799987792969</ele>
        <time>2015-03-08T11:35:13Z</time>
      </trkpt>
      <trkpt lat="49.0815" lon="2.02869">
        <ele>47.799987792969</ele>
        <time>2015-03-08T11:35:20Z</time>
      </trkpt>
      <trkpt lat="49.08139" lon="2.02898">
        <ele>50.599975585938</ele>
        <time>2015-03-08T11:35:28Z</time>
      </trkpt>
      <trkpt lat="49.08128" lon="2.02928">
        <ele>52.200012207031</ele>
        <time>2015-03-08T11:35:46Z</time>
      </trkpt>
      <trkpt lat="49.08126" lon="2.02931">
        <ele>51.799987792969</ele>
        <time>2015-03-08T11:36:48Z</time>
      </trkpt>
      <trkpt lat="49.08116" lon="2.02957">
        <ele>51.799987792969</ele>
        <time>2015-03-08T11:36:55Z</time>
      </trkpt>
      <trkpt lat="49.08097" lon="2.0303">
        <ele>50.799987792969</ele>
        <time>2015-03-08T11:37:14Z</time>
      </trkpt>
      <trkpt lat="49.08087" lon="2.03076">
        <ele>48.799987792969</ele>
        <time>2015-03-08T11:37:24Z</time>
      </trkpt>
      <trkpt lat="49.08086" lon="2.03078">
        <ele>48.400024414062</ele>
        <time>2015-03-08T11:37:45Z</time>
      </trkpt>
      <trkpt lat="49.08085" lon="2.03086">
        <ele>48</ele>
        <time>2015-03-08T11:38:03Z</time>
      </trkpt>
      <trkpt lat="49.08078" lon="2.03118">
        <ele>47.799987792969</ele>
        <time>2015-03-08T11:38:08Z</time>
      </trkpt>
      <trkpt lat="49.08055" lon="2.03189">
        <ele>46.599975585938</ele>
        <time>2015-03-08T11:38:20Z</time>
      </trkpt>
      <trkpt lat="49.0805" lon="2.03195">
        <ele>46.200012207031</ele>
        <time>2015-03-08T11:38:24Z</time>
      </trkpt>
      <trkpt lat="49.08046" lon="2.03228">
        <ele>46.200012207031</ele>
        <time>2015-03-08T11:38:31Z</time>
      </trkpt>
      <trkpt lat="49.08036" lon="2.03271">
        <ele>46.200012207031</ele>
        <time>2015-03-08T11:38:40Z</time>
      </trkpt>
      <trkpt lat="49.08015" lon="2.0332">
        <ele>46</ele>
        <time>2015-03-08T11:38:49Z</time>
      </trkpt>
      <trkpt lat="49.07969" lon="2.0342">
        <ele>46.400024414062</ele>
        <time>2015-03-08T11:39:05Z</time>
      </trkpt>
      <trkpt lat="49.07907" lon="2.03546">
        <ele>46.599975585938</ele>
        <time>2015-03-08T11:39:27Z</time>
      </trkpt>
      <trkpt lat="49.07883" lon="2.03577">
        <ele>47</ele>
        <time>2015-03-08T11:39:33Z</time>
      </trkpt>
      <trkpt lat="49.07799" lon="2.03693">
        <ele>47.400024414062</ele>
        <time>2015-03-08T11:39:53Z</time>
      </trkpt>
      <trkpt lat="49.07758" lon="2.03759">
        <ele>47</ele>
        <time>2015-03-08T11:40:03Z</time>
      </trkpt>
      <trkpt lat="49.07747" lon="2.0378">
        <ele>46.599975585938</ele>
        <time>2015-03-08T11:40:06Z</time>
      </trkpt>
      <trkpt lat="49.07725" lon="2.03825">
        <ele>45.400024414062</ele>
        <time>2015-03-08T11:40:12Z</time>
      </trkpt>
      <trkpt lat="49.07673" lon="2.03886">
        <ele>46.599975585938</ele>
        <time>2015-03-08T11:40:24Z</time>
      </trkpt>
      <trkpt lat="49.07638" lon="2.03918">
        <ele>47.599975585938</ele>
        <time>2015-03-08T11:40:32Z</time>
      </trkpt>
      <trkpt lat="49.07616" lon="2.0394">
        <ele>48.400024414062</ele>
        <time>2015-03-08T11:40:38Z</time>
      </trkpt>
      <trkpt lat="49.0761" lon="2.03949">
        <ele>48.599975585938</ele>
        <time>2015-03-08T11:40:40Z</time>
      </trkpt>
      <trkpt lat="49.07607" lon="2.03954">
        <ele>48.599975585938</ele>
        <time>2015-03-08T11:40:41Z</time>
      </trkpt>
      <trkpt lat="49.07588" lon="2.03995">
        <ele>48.799987792969</ele>
        <time>2015-03-08T11:40:50Z</time>
      </trkpt>
      <trkpt lat="49.076" lon="2.0402">
        <ele>49.799987792969</ele>
        <time>2015-03-08T11:40:58Z</time>
      </trkpt>
      <trkpt lat="49.0763" lon="2.04054">
        <ele>52.200012207031</ele>
        <time>2015-03-08T11:41:08Z</time>
      </trkpt>
      <trkpt lat="49.07661" lon="2.04091">
        <ele>53.200012207031</ele>
        <time>2015-03-08T11:41:18Z</time>
      </trkpt>
      <trkpt lat="49.07668" lon="2.0413">
        <ele>53.400024414062</ele>
        <time>2015-03-08T11:41:26Z</time>
      </trkpt>
      <trkpt lat="49.07659" lon="2.04137">
        <ele>53.200012207031</ele>
        <time>2015-03-08T11:41:31Z</time>
      </trkpt>
      <trkpt lat="49.07652" lon="2.04144">
        <ele>53.400024414062</ele>
        <time>2015-03-08T11:41:34Z</time>
      </trkpt>
      <trkpt lat="49.07606" lon="2.04186">
        <ele>53.400024414062</ele>
        <time>2015-03-08T11:41:49Z</time>
      </trkpt>
      <trkpt lat="49.0754" lon="2.04227">
        <ele>54.200012207031</ele>
        <time>2015-03-08T11:42:05Z</time>
      </trkpt>
      <trkpt lat="49.07513" lon="2.04241">
        <ele>54.400024414062</ele>
        <time>2015-03-08T11:42:11Z</time>
      </trkpt>
      <trkpt lat="49.07458" lon="2.04276">
        <ele>56</ele>
        <time>2015-03-08T11:42:24Z</time>
      </trkpt>
      <trkpt lat="49.07437" lon="2.04289">
        <ele>56.599975585938</ele>
        <time>2015-03-08T11:42:29Z</time>
      </trkpt>
      <trkpt lat="49.07405" lon="2.04286">
        <ele>56.799987792969</ele>
        <time>2015-03-08T11:42:36Z</time>
      </trkpt>
      <trkpt lat="49.07347" lon="2.04288">
        <ele>57.400024414062</ele>
        <time>2015-03-08T11:42:48Z</time>
      </trkpt>
      <trkpt lat="49.07319" lon="2.04297">
        <ele>57.599975585938</ele>
        <time>2015-03-08T11:42:54Z</time>
      </trkpt>
      <trkpt lat="49.07314" lon="2.04298">
        <ele>57.799987792969</ele>
        <time>2015-03-08T11:42:55Z</time>
      </trkpt>
      <trkpt lat="49.07274" lon="2.04303">
        <ele>58.200012207031</ele>
        <time>2015-03-08T11:43:03Z</time>
      </trkpt>
      <trkpt lat="49.07121" lon="2.04324">
        <ele>57</ele>
        <time>2015-03-08T11:43:31Z</time>
      </trkpt>
      <trkpt lat="49.07106" lon="2.04345">
        <ele>56.599975585938</ele>
        <time>2015-03-08T11:43:34Z</time>
      </trkpt>
      <trkpt lat="49.07099" lon="2.04363">
        <ele>56</ele>
        <time>2015-03-08T11:43:36Z</time>
      </trkpt>
      <trkpt lat="49.07095" lon="2.04372">
        <ele>56</ele>
        <time>2015-03-08T11:43:37Z</time>
      </trkpt>
      <trkpt lat="49.07067" lon="2.0448">
        <ele>54.599975585938</ele>
        <time>2015-03-08T11:43:48Z</time>
      </trkpt>
      <trkpt lat="49.07041" lon="2.04601">
        <ele>53.200012207031</ele>
        <time>2015-03-08T11:44:00Z</time>
      </trkpt>
      <trkpt lat="49.07035" lon="2.04696">
        <ele>52.200012207031</ele>
        <time>2015-03-08T11:44:09Z</time>
      </trkpt>
      <trkpt lat="49.07034" lon="2.04774">
        <ele>51</ele>
        <time>2015-03-08T11:44:17Z</time>
      </trkpt>
      <trkpt lat="49.07034" lon="2.04839">
        <ele>50</ele>
        <time>2015-03-08T11:44:25Z</time>
      </trkpt>
      <trkpt lat="49.07036" lon="2.04857">
        <ele>49.799987792969</ele>
        <time>2015-03-08T11:44:31Z</time>
      </trkpt>
      <trkpt lat="49.07034" lon="2.04899">
        <ele>49</ele>
        <time>2015-03-08T11:44:37Z</time>
      </trkpt>
      <trkpt lat="49.07034" lon="2.04923">
        <ele>48.599975585938</ele>
        <time>2015-03-08T11:44:40Z</time>
      </trkpt>
      <trkpt lat="49.07033" lon="2.0505">
        <ele>47</ele>
        <time>2015-03-08T11:44:55Z</time>
      </trkpt>
      <trkpt lat="49.0704" lon="2.05103">
        <ele>46.200012207031</ele>
        <time>2015-03-08T11:45:01Z</time>
      </trkpt>
      <trkpt lat="49.07056" lon="2.05214">
        <ele>44.799987792969</ele>
        <time>2015-03-08T11:45:14Z</time>
      </trkpt>
      <trkpt lat="49.0704" lon="2.0523">
        <ele>44</ele>
        <time>2015-03-08T11:45:19Z</time>
      </trkpt>
      <trkpt lat="49.07" lon="2.05238">
        <ele>41</ele>
        <time>2015-03-08T11:45:26Z</time>
      </trkpt>
      <trkpt lat="49.06937" lon="2.05235">
        <ele>37.799987792969</ele>
        <time>2015-03-08T11:45:35Z</time>
      </trkpt>
      <trkpt lat="49.06881" lon="2.05229">
        <ele>34</ele>
        <time>2015-03-08T11:45:42Z</time>
      </trkpt>
      <trkpt lat="49.06842" lon="2.05223">
        <ele>31.200012207031</ele>
        <time>2015-03-08T11:45:49Z</time>
      </trkpt>
      <trkpt lat="49.06821" lon="2.05252">
        <ele>28.400024414062</ele>
        <time>2015-03-08T11:45:56Z</time>
      </trkpt>
      <trkpt lat="49.06821" lon="2.05259">
        <ele>28.400024414062</ele>
        <time>2015-03-08T11:45:57Z</time>
      </trkpt>
      <trkpt lat="49.0681" lon="2.05352">
        <ele>28.200012207031</ele>
        <time>2015-03-08T11:46:10Z</time>
      </trkpt>
      <trkpt lat="49.06803" lon="2.05393">
        <ele>28</ele>
        <time>2015-03-08T11:46:16Z</time>
      </trkpt>
      <trkpt lat="49.06793" lon="2.05404">
        <ele>27.599975585938</ele>
        <time>2015-03-08T11:46:21Z</time>
      </trkpt>
      <trkpt lat="49.06769" lon="2.0544">
        <ele>24.599975585938</ele>
        <time>2015-03-08T11:46:27Z</time>
      </trkpt>
      <trkpt lat="49.06767" lon="2.05445">
        <ele>21.200012207031</ele>
        <time>2015-03-08T11:46:30Z</time>
      </trkpt>
      <trkpt lat="49.06754" lon="2.05468">
        <ele>19.400024414062</ele>
        <time>2015-03-08T11:46:42Z</time>
      </trkpt>
      <trkpt lat="49.06749" lon="2.05474">
        <ele>18.400024414062</ele>
        <time>2015-03-08T11:46:43Z</time>
      </trkpt>
      <trkpt lat="49.06742" lon="2.05491">
        <ele>15</ele>
        <time>2015-03-08T11:46:45Z</time>
      </trkpt>
      <trkpt lat="49.0674" lon="2.05509">
        <ele>12.599975585938</ele>
        <time>2015-03-08T11:46:47Z</time>
      </trkpt>
      <trkpt lat="49.06735" lon="2.05535">
        <ele>10.399993896484</ele>
        <time>2015-03-08T11:46:53Z</time>
      </trkpt>
      <trkpt lat="49.06732" lon="2.0554">
        <ele>10.200012207031</ele>
        <time>2015-03-08T11:46:54Z</time>
      </trkpt>
      <trkpt lat="49.0671" lon="2.05549">
        <ele>9.3999938964844</ele>
        <time>2015-03-08T11:47:01Z</time>
      </trkpt>
      <trkpt lat="49.0671" lon="2.0556">
        <ele>9.2000122070312</ele>
        <time>2015-03-08T11:47:04Z</time>
      </trkpt>
      <trkpt lat="49.06711" lon="2.05594">
        <ele>9.3999938964844</ele>
        <time>2015-03-08T11:47:11Z</time>
      </trkpt>
      <trkpt lat="49.06697" lon="2.05635">
        <ele>9.6000061035156</ele>
        <time>2015-03-08T11:47:20Z</time>
      </trkpt>
      <trkpt lat="49.06647" lon="2.05632">
        <ele>9</ele>
        <time>2015-03-08T11:47:33Z</time>
      </trkpt>
      <trkpt lat="49.06635" lon="2.0563">
        <ele>9</ele>
        <time>2015-03-08T11:47:37Z</time>
      </trkpt>
      <trkpt lat="49.06624" lon="2.05633">
        <ele>9.2000122070312</ele>
        <time>2015-03-08T11:47:42Z</time>
      </trkpt>
      <trkpt lat="49.06577" lon="2.05665">
        <ele>9</ele>
        <time>2015-03-08T11:47:52Z</time>
      </trkpt>
      <trkpt lat="49.06556" lon="2.05679">
        <ele>8.6000061035156</ele>
        <time>2015-03-08T11:47:58Z</time>
      </trkpt>
      <trkpt lat="49.06518" lon="2.05735">
        <ele>8.6000061035156</ele>
        <time>2015-03-08T11:48:09Z</time>
      </trkpt>
      <trkpt lat="49.06483" lon="2.05771">
        <ele>8.6000061035156</ele>
        <time>2015-03-08T11:48:18Z</time>
      </trkpt>
      <trkpt lat="49.0644" lon="2.05821">
        <ele>8.7999877929688</ele>
        <time>2015-03-08T11:48:30Z</time>
      </trkpt>
      <trkpt lat="49.06428" lon="2.0581">
        <ele>9</ele>
        <time>2015-03-08T11:48:36Z</time>
      </trkpt>
      <trkpt lat="49.06398" lon="2.05816">
        <ele>9.6000061035156</ele>
        <time>2015-03-08T11:48:42Z</time>
      </trkpt>
      <trkpt lat="49.06365" lon="2.05844">
        <ele>10.200012207031</ele>
        <time>2015-03-08T11:48:50Z</time>
      </trkpt>
      <trkpt lat="49.06358" lon="2.05854">
        <ele>10.399993896484</ele>
        <time>2015-03-08T11:48:52Z</time>
      </trkpt>
      <trkpt lat="49.06333" lon="2.05851">
        <ele>10.799987792969</ele>
        <time>2015-03-08T11:48:58Z</time>
      </trkpt>
      <trkpt lat="49.06289" lon="2.05839">
        <ele>12.400024414062</ele>
        <time>2015-03-08T11:49:10Z</time>
      </trkpt>
      <trkpt lat="49.06266" lon="2.05842">
        <ele>12.200012207031</ele>
        <time>2015-03-08T11:49:16Z</time>
      </trkpt>
      <trkpt lat="49.06208" lon="2.05851">
        <ele>12</ele>
        <time>2015-03-08T11:49:29Z</time>
      </trkpt>
      <trkpt lat="49.06198" lon="2.05844">
        <ele>12.599975585938</ele>
        <time>2015-03-08T11:49:33Z</time>
      </trkpt>
      <trkpt lat="49.06195" lon="2.05825">
        <ele>13.799987792969</ele>
        <time>2015-03-08T11:49:38Z</time>
      </trkpt>
      <trkpt lat="49.06207" lon="2.0581">
        <ele>15</ele>
        <time>2015-03-08T11:49:44Z</time>
      </trkpt>
      <trkpt lat="49.06218" lon="2.05806">
        <ele>15.400024414062</ele>
        <time>2015-03-08T11:49:48Z</time>
      </trkpt>
      <trkpt lat="49.06236" lon="2.05799">
        <ele>16.200012207031</ele>
        <time>2015-03-08T11:49:55Z</time>
      </trkpt>
    </trkseg>
  </trk>
</gpx>